<?xml version="1.0" encoding="UTF-8" standalone="no" ?>
<gpx xmlns="http://www.topografix.com/GPX/1/1" xmlns:xsi="http://www.w3.org/2001/XMLSchema-instance" xsi:schemaLocation="http://www.topografix.com/GPX/1/1 http://www.topografix.com/GPX/1/1/gpx.xsd" version="1.1" creator="VisuGPX - https://www.visugpx.com">
  <metadata>
    <name>Rilhac-St-Pardoux_50km</name>
  </metadata>
  <trk>
    <name><![CDATA[Rilhac-St-Pardoux_50km]]></name>
    <trkseg>
      <trkpt lat="45.92681" lon="1.28744">
        <ele>391</ele>
        <time>2007-05-21T06:31:41Z</time>
      </trkpt>
      <trkpt lat="45.92691" lon="1.28674">
        <ele>390</ele>
        <time>2007-05-21T06:32:01Z</time>
      </trkpt>
      <trkpt lat="45.92703" lon="1.28607">
        <ele>390</ele>
        <time>2007-05-21T06:32:20Z</time>
      </trkpt>
      <trkpt lat="45.92714" lon="1.2854">
        <ele>390</ele>
        <time>2007-05-21T06:32:39Z</time>
      </trkpt>
      <trkpt lat="45.92722" lon="1.28451">
        <ele>388</ele>
        <time>2007-05-21T06:33:04Z</time>
      </trkpt>
      <trkpt lat="45.92717" lon="1.28361">
        <ele>388</ele>
        <time>2007-05-21T06:33:29Z</time>
      </trkpt>
      <trkpt lat="45.92705" lon="1.28287">
        <ele>389</ele>
        <time>2007-05-21T06:33:50Z</time>
      </trkpt>
      <trkpt lat="45.92685" lon="1.282">
        <ele>389</ele>
        <time>2007-05-21T06:34:16Z</time>
      </trkpt>
      <trkpt lat="45.92649" lon="1.28128">
        <ele>389</ele>
        <time>2007-05-21T06:34:41Z</time>
      </trkpt>
      <trkpt lat="45.92616" lon="1.28078">
        <ele>393</ele>
        <time>2007-05-21T06:35:00Z</time>
      </trkpt>
      <trkpt lat="45.92589" lon="1.28042">
        <ele>394</ele>
        <time>2007-05-21T06:35:15Z</time>
      </trkpt>
      <trkpt lat="45.92576" lon="1.27997">
        <ele>394</ele>
        <time>2007-05-21T06:35:28Z</time>
      </trkpt>
      <trkpt lat="45.92565" lon="1.27942">
        <ele>392</ele>
        <time>2007-05-21T06:35:45Z</time>
      </trkpt>
      <trkpt lat="45.92555" lon="1.2789">
        <ele>392</ele>
        <time>2007-05-21T06:35:59Z</time>
      </trkpt>
      <trkpt lat="45.92552" lon="1.27811">
        <ele>391</ele>
        <time>2007-05-21T06:36:22Z</time>
      </trkpt>
      <trkpt lat="45.92553" lon="1.27735">
        <ele>388</ele>
        <time>2007-05-21T06:36:42Z</time>
      </trkpt>
      <trkpt lat="45.92545" lon="1.27611">
        <ele>384</ele>
        <time>2007-05-21T06:37:17Z</time>
      </trkpt>
      <trkpt lat="45.9251" lon="1.27512">
        <ele>379</ele>
        <time>2007-05-21T06:37:49Z</time>
      </trkpt>
      <trkpt lat="45.9254" lon="1.27399">
        <ele>372</ele>
        <time>2007-05-21T06:38:23Z</time>
      </trkpt>
      <trkpt lat="45.92544" lon="1.27276">
        <ele>374</ele>
        <time>2007-05-21T06:38:57Z</time>
      </trkpt>
      <trkpt lat="45.92549" lon="1.2722">
        <ele>378</ele>
        <time>2007-05-21T06:39:13Z</time>
      </trkpt>
      <trkpt lat="45.92553" lon="1.27179">
        <ele>379</ele>
        <time>2007-05-21T06:39:24Z</time>
      </trkpt>
      <trkpt lat="45.92556" lon="1.27142">
        <ele>383</ele>
        <time>2007-05-21T06:39:35Z</time>
      </trkpt>
      <trkpt lat="45.92559" lon="1.27111">
        <ele>384</ele>
        <time>2007-05-21T06:39:44Z</time>
      </trkpt>
      <trkpt lat="45.92561" lon="1.27079">
        <ele>385</ele>
        <time>2007-05-21T06:39:52Z</time>
      </trkpt>
      <trkpt lat="45.92564" lon="1.27047">
        <ele>386</ele>
        <time>2007-05-21T06:40:02Z</time>
      </trkpt>
      <trkpt lat="45.92598" lon="1.27042">
        <ele>385</ele>
        <time>2007-05-21T06:40:16Z</time>
      </trkpt>
      <trkpt lat="45.92641" lon="1.27044">
        <ele>385</ele>
        <time>2007-05-21T06:40:33Z</time>
      </trkpt>
      <trkpt lat="45.92684" lon="1.27061">
        <ele>385</ele>
        <time>2007-05-21T06:40:51Z</time>
      </trkpt>
      <trkpt lat="45.9273" lon="1.27076">
        <ele>386</ele>
        <time>2007-05-21T06:41:10Z</time>
      </trkpt>
      <trkpt lat="45.92774" lon="1.27063">
        <ele>389</ele>
        <time>2007-05-21T06:41:28Z</time>
      </trkpt>
      <trkpt lat="45.92819" lon="1.27062">
        <ele>392</ele>
        <time>2007-05-21T06:41:46Z</time>
      </trkpt>
      <trkpt lat="45.9286" lon="1.27064">
        <ele>396</ele>
        <time>2007-05-21T06:42:03Z</time>
      </trkpt>
      <trkpt lat="45.92897" lon="1.27072">
        <ele>397</ele>
        <time>2007-05-21T06:42:17Z</time>
      </trkpt>
      <trkpt lat="45.92925" lon="1.27066">
        <ele>400</ele>
        <time>2007-05-21T06:42:29Z</time>
      </trkpt>
      <trkpt lat="45.92958" lon="1.27065">
        <ele>401</ele>
        <time>2007-05-21T06:42:42Z</time>
      </trkpt>
      <trkpt lat="45.92987" lon="1.27068">
        <ele>402</ele>
        <time>2007-05-21T06:42:54Z</time>
      </trkpt>
      <trkpt lat="45.93012" lon="1.2708">
        <ele>403</ele>
        <time>2007-05-21T06:43:05Z</time>
      </trkpt>
      <trkpt lat="45.93054" lon="1.27113">
        <ele>405</ele>
        <time>2007-05-21T06:43:25Z</time>
      </trkpt>
      <trkpt lat="45.93078" lon="1.27124">
        <ele>406</ele>
        <time>2007-05-21T06:43:35Z</time>
      </trkpt>
      <trkpt lat="45.93105" lon="1.2715">
        <ele>405</ele>
        <time>2007-05-21T06:43:48Z</time>
      </trkpt>
      <trkpt lat="45.93133" lon="1.27199">
        <ele>407</ele>
        <time>2007-05-21T06:44:06Z</time>
      </trkpt>
      <trkpt lat="45.93165" lon="1.27269">
        <ele>408</ele>
        <time>2007-05-21T06:44:29Z</time>
      </trkpt>
      <trkpt lat="45.93204" lon="1.27294">
        <ele>408</ele>
        <time>2007-05-21T06:44:47Z</time>
      </trkpt>
      <trkpt lat="45.93236" lon="1.27304">
        <ele>408</ele>
        <time>2007-05-21T06:45:00Z</time>
      </trkpt>
      <trkpt lat="45.93268" lon="1.27323">
        <ele>410</ele>
        <time>2007-05-21T06:45:14Z</time>
      </trkpt>
      <trkpt lat="45.93302" lon="1.2733">
        <ele>412</ele>
        <time>2007-05-21T06:45:28Z</time>
      </trkpt>
      <trkpt lat="45.9334" lon="1.27316">
        <ele>417</ele>
        <time>2007-05-21T06:45:44Z</time>
      </trkpt>
      <trkpt lat="45.93373" lon="1.27301">
        <ele>419</ele>
        <time>2007-05-21T06:45:58Z</time>
      </trkpt>
      <trkpt lat="45.93401" lon="1.27289">
        <ele>420</ele>
        <time>2007-05-21T06:46:09Z</time>
      </trkpt>
      <trkpt lat="45.93428" lon="1.2728">
        <ele>424</ele>
        <time>2007-05-21T06:46:21Z</time>
      </trkpt>
      <trkpt lat="45.93455" lon="1.2728">
        <ele>425</ele>
        <time>2007-05-21T06:46:32Z</time>
      </trkpt>
      <trkpt lat="45.93482" lon="1.27283">
        <ele>425</ele>
        <time>2007-05-21T06:46:43Z</time>
      </trkpt>
      <trkpt lat="45.93515" lon="1.27292">
        <ele>424</ele>
        <time>2007-05-21T06:46:56Z</time>
      </trkpt>
      <trkpt lat="45.93558" lon="1.27316">
        <ele>422</ele>
        <time>2007-05-21T06:47:15Z</time>
      </trkpt>
      <trkpt lat="45.93619" lon="1.27353">
        <ele>420</ele>
        <time>2007-05-21T06:47:42Z</time>
      </trkpt>
      <trkpt lat="45.93665" lon="1.2738">
        <ele>420</ele>
        <time>2007-05-21T06:48:02Z</time>
      </trkpt>
      <trkpt lat="45.93704" lon="1.27402">
        <ele>420</ele>
        <time>2007-05-21T06:48:19Z</time>
      </trkpt>
      <trkpt lat="45.93746" lon="1.27408">
        <ele>421</ele>
        <time>2007-05-21T06:48:36Z</time>
      </trkpt>
      <trkpt lat="45.938" lon="1.27399">
        <ele>420</ele>
        <time>2007-05-21T06:48:58Z</time>
      </trkpt>
      <trkpt lat="45.93855" lon="1.27389">
        <ele>419</ele>
        <time>2007-05-21T06:49:20Z</time>
      </trkpt>
      <trkpt lat="45.93901" lon="1.27383">
        <ele>419</ele>
        <time>2007-05-21T06:49:38Z</time>
      </trkpt>
      <trkpt lat="45.9395" lon="1.27396">
        <ele>420</ele>
        <time>2007-05-21T06:49:58Z</time>
      </trkpt>
      <trkpt lat="45.94003" lon="1.2743">
        <ele>418</ele>
        <time>2007-05-21T06:50:22Z</time>
      </trkpt>
      <trkpt lat="45.94061" lon="1.27478">
        <ele>418</ele>
        <time>2007-05-21T06:50:49Z</time>
      </trkpt>
      <trkpt lat="45.94122" lon="1.27492">
        <ele>418</ele>
        <time>2007-05-21T06:51:14Z</time>
      </trkpt>
      <trkpt lat="45.94166" lon="1.27489">
        <ele>419</ele>
        <time>2007-05-21T06:51:32Z</time>
      </trkpt>
      <trkpt lat="45.94213" lon="1.27467">
        <ele>420</ele>
        <time>2007-05-21T06:51:52Z</time>
      </trkpt>
      <trkpt lat="45.94254" lon="1.27429">
        <ele>422</ele>
        <time>2007-05-21T06:52:12Z</time>
      </trkpt>
      <trkpt lat="45.94285" lon="1.27405">
        <ele>423</ele>
        <time>2007-05-21T06:52:26Z</time>
      </trkpt>
      <trkpt lat="45.94312" lon="1.27395">
        <ele>424</ele>
        <time>2007-05-21T06:52:37Z</time>
      </trkpt>
      <trkpt lat="45.94333" lon="1.27387">
        <ele>425</ele>
        <time>2007-05-21T06:52:46Z</time>
      </trkpt>
      <trkpt lat="45.94361" lon="1.27369">
        <ele>429</ele>
        <time>2007-05-21T06:52:59Z</time>
      </trkpt>
      <trkpt lat="45.94386" lon="1.27348">
        <ele>430</ele>
        <time>2007-05-21T06:53:10Z</time>
      </trkpt>
      <trkpt lat="45.94405" lon="1.27338">
        <ele>431</ele>
        <time>2007-05-21T06:53:19Z</time>
      </trkpt>
      <trkpt lat="45.94405" lon="1.2732">
        <ele>432</ele>
        <time>2007-05-21T06:53:25Z</time>
      </trkpt>
      <trkpt lat="45.94399" lon="1.27287">
        <ele>432</ele>
        <time>2007-05-21T06:53:35Z</time>
      </trkpt>
      <trkpt lat="45.94404" lon="1.27261">
        <ele>434</ele>
        <time>2007-05-21T06:53:42Z</time>
      </trkpt>
      <trkpt lat="45.94419" lon="1.27245">
        <ele>440</ele>
        <time>2007-05-21T06:53:50Z</time>
      </trkpt>
      <trkpt lat="45.94433" lon="1.27226">
        <ele>442</ele>
        <time>2007-05-21T06:53:57Z</time>
      </trkpt>
      <trkpt lat="45.94446" lon="1.27204">
        <ele>444</ele>
        <time>2007-05-21T06:54:06Z</time>
      </trkpt>
      <trkpt lat="45.94465" lon="1.27153">
        <ele>453</ele>
        <time>2007-05-21T06:54:22Z</time>
      </trkpt>
      <trkpt lat="45.9447" lon="1.27131">
        <ele>454</ele>
        <time>2007-05-21T06:54:28Z</time>
      </trkpt>
      <trkpt lat="45.94477" lon="1.27109">
        <ele>456</ele>
        <time>2007-05-21T06:54:35Z</time>
      </trkpt>
      <trkpt lat="45.94483" lon="1.27085">
        <ele>458</ele>
        <time>2007-05-21T06:54:42Z</time>
      </trkpt>
      <trkpt lat="45.94491" lon="1.27057">
        <ele>458</ele>
        <time>2007-05-21T06:54:51Z</time>
      </trkpt>
      <trkpt lat="45.94507" lon="1.27015">
        <ele>460</ele>
        <time>2007-05-21T06:55:04Z</time>
      </trkpt>
      <trkpt lat="45.94515" lon="1.26973">
        <ele>458</ele>
        <time>2007-05-21T06:55:16Z</time>
      </trkpt>
      <trkpt lat="45.94535" lon="1.26911">
        <ele>453</ele>
        <time>2007-05-21T06:55:36Z</time>
      </trkpt>
      <trkpt lat="45.94541" lon="1.26824">
        <ele>448</ele>
        <time>2007-05-21T06:56:02Z</time>
      </trkpt>
      <trkpt lat="45.94522" lon="1.26722">
        <ele>447</ele>
        <time>2007-05-21T06:56:31Z</time>
      </trkpt>
      <trkpt lat="45.94504" lon="1.26668">
        <ele>450</ele>
        <time>2007-05-21T06:56:48Z</time>
      </trkpt>
      <trkpt lat="45.94494" lon="1.26622">
        <ele>451</ele>
        <time>2007-05-21T06:57:01Z</time>
      </trkpt>
      <trkpt lat="45.94485" lon="1.26583">
        <ele>455</ele>
        <time>2007-05-21T06:57:13Z</time>
      </trkpt>
      <trkpt lat="45.94472" lon="1.26539">
        <ele>454</ele>
        <time>2007-05-21T06:57:26Z</time>
      </trkpt>
      <trkpt lat="45.9446" lon="1.265">
        <ele>455</ele>
        <time>2007-05-21T06:57:38Z</time>
      </trkpt>
      <trkpt lat="45.94452" lon="1.26444">
        <ele>455</ele>
        <time>2007-05-21T06:57:54Z</time>
      </trkpt>
      <trkpt lat="45.94446" lon="1.26407">
        <ele>457</ele>
        <time>2007-05-21T06:58:04Z</time>
      </trkpt>
      <trkpt lat="45.94442" lon="1.26372">
        <ele>458</ele>
        <time>2007-05-21T06:58:14Z</time>
      </trkpt>
      <trkpt lat="45.94439" lon="1.26321">
        <ele>458</ele>
        <time>2007-05-21T06:58:29Z</time>
      </trkpt>
      <trkpt lat="45.94401" lon="1.26271">
        <ele>458</ele>
        <time>2007-05-21T06:58:50Z</time>
      </trkpt>
      <trkpt lat="45.94372" lon="1.26221">
        <ele>459</ele>
        <time>2007-05-21T06:59:09Z</time>
      </trkpt>
      <trkpt lat="45.94364" lon="1.26163">
        <ele>458</ele>
        <time>2007-05-21T06:59:25Z</time>
      </trkpt>
      <trkpt lat="45.94347" lon="1.26092">
        <ele>457</ele>
        <time>2007-05-21T06:59:46Z</time>
      </trkpt>
      <trkpt lat="45.9434" lon="1.26015">
        <ele>453</ele>
        <time>2007-05-21T07:00:08Z</time>
      </trkpt>
      <trkpt lat="45.94371" lon="1.25963">
        <ele>452</ele>
        <time>2007-05-21T07:00:27Z</time>
      </trkpt>
      <trkpt lat="45.944" lon="1.25903">
        <ele>450</ele>
        <time>2007-05-21T07:00:47Z</time>
      </trkpt>
      <trkpt lat="45.944" lon="1.25861">
        <ele>450</ele>
        <time>2007-05-21T07:00:59Z</time>
      </trkpt>
      <trkpt lat="45.944" lon="1.25855">
        <ele>450</ele>
        <time>2007-05-21T07:01:01Z</time>
      </trkpt>
      <trkpt lat="45.94399" lon="1.25846">
        <ele>449</ele>
        <time>2007-05-21T07:01:03Z</time>
      </trkpt>
      <trkpt lat="45.94397" lon="1.25841">
        <ele>449</ele>
        <time>2007-05-21T07:01:05Z</time>
      </trkpt>
      <trkpt lat="45.94385" lon="1.2581">
        <ele>449</ele>
        <time>2007-05-21T07:01:15Z</time>
      </trkpt>
      <trkpt lat="45.94402" lon="1.25736">
        <ele>446</ele>
        <time>2007-05-21T07:01:39Z</time>
      </trkpt>
      <trkpt lat="45.94437" lon="1.25686">
        <ele>443</ele>
        <time>2007-05-21T07:01:58Z</time>
      </trkpt>
      <trkpt lat="45.94476" lon="1.25632">
        <ele>440</ele>
        <time>2007-05-21T07:02:20Z</time>
      </trkpt>
      <trkpt lat="45.94532" lon="1.25551">
        <ele>428</ele>
        <time>2007-05-21T07:02:52Z</time>
      </trkpt>
      <trkpt lat="45.94562" lon="1.25547">
        <ele>427</ele>
        <time>2007-05-21T07:03:07Z</time>
      </trkpt>
      <trkpt lat="45.94606" lon="1.25464">
        <ele>421</ele>
        <time>2007-05-21T07:03:36Z</time>
      </trkpt>
      <trkpt lat="45.94652" lon="1.25406">
        <ele>420</ele>
        <time>2007-05-21T07:04:01Z</time>
      </trkpt>
      <trkpt lat="45.94704" lon="1.2539">
        <ele>419</ele>
        <time>2007-05-21T07:04:22Z</time>
      </trkpt>
      <trkpt lat="45.94744" lon="1.25371">
        <ele>420</ele>
        <time>2007-05-21T07:04:40Z</time>
      </trkpt>
      <trkpt lat="45.94788" lon="1.25342">
        <ele>417</ele>
        <time>2007-05-21T07:04:59Z</time>
      </trkpt>
      <trkpt lat="45.9482" lon="1.25274">
        <ele>417</ele>
        <time>2007-05-21T07:05:24Z</time>
      </trkpt>
      <trkpt lat="45.9478" lon="1.25162">
        <ele>410</ele>
        <time>2007-05-21T07:05:59Z</time>
      </trkpt>
      <trkpt lat="45.94841" lon="1.24951">
        <ele>411</ele>
        <time>2007-05-21T07:07:08Z</time>
      </trkpt>
      <trkpt lat="45.94889" lon="1.24869">
        <ele>412</ele>
        <time>2007-05-21T07:07:39Z</time>
      </trkpt>
      <trkpt lat="45.94947" lon="1.24882">
        <ele>411</ele>
        <time>2007-05-21T07:08:04Z</time>
      </trkpt>
      <trkpt lat="45.94983" lon="1.24913">
        <ele>410</ele>
        <time>2007-05-21T07:08:21Z</time>
      </trkpt>
      <trkpt lat="45.95017" lon="1.24937">
        <ele>412</ele>
        <time>2007-05-21T07:08:36Z</time>
      </trkpt>
      <trkpt lat="45.95051" lon="1.24961">
        <ele>414</ele>
        <time>2007-05-21T07:08:51Z</time>
      </trkpt>
      <trkpt lat="45.95076" lon="1.24997">
        <ele>415</ele>
        <time>2007-05-21T07:09:06Z</time>
      </trkpt>
      <trkpt lat="45.95095" lon="1.25032">
        <ele>418</ele>
        <time>2007-05-21T07:09:18Z</time>
      </trkpt>
      <trkpt lat="45.95112" lon="1.25061">
        <ele>419</ele>
        <time>2007-05-21T07:09:29Z</time>
      </trkpt>
      <trkpt lat="45.9513" lon="1.25091">
        <ele>418</ele>
        <time>2007-05-21T07:09:40Z</time>
      </trkpt>
      <trkpt lat="45.95163" lon="1.25147">
        <ele>418</ele>
        <time>2007-05-21T07:10:00Z</time>
      </trkpt>
      <trkpt lat="45.9522" lon="1.25199">
        <ele>414</ele>
        <time>2007-05-21T07:10:28Z</time>
      </trkpt>
      <trkpt lat="45.95265" lon="1.25236">
        <ele>412</ele>
        <time>2007-05-21T07:10:49Z</time>
      </trkpt>
      <trkpt lat="45.95322" lon="1.25281">
        <ele>412</ele>
        <time>2007-05-21T07:11:15Z</time>
      </trkpt>
      <trkpt lat="45.95366" lon="1.25319">
        <ele>413</ele>
        <time>2007-05-21T07:11:36Z</time>
      </trkpt>
      <trkpt lat="45.95403" lon="1.25334">
        <ele>414</ele>
        <time>2007-05-21T07:11:51Z</time>
      </trkpt>
      <trkpt lat="45.95446" lon="1.2534">
        <ele>415</ele>
        <time>2007-05-21T07:12:10Z</time>
      </trkpt>
      <trkpt lat="45.95481" lon="1.25292">
        <ele>415</ele>
        <time>2007-05-21T07:12:29Z</time>
      </trkpt>
      <trkpt lat="45.95523" lon="1.25252">
        <ele>417</ele>
        <time>2007-05-21T07:12:49Z</time>
      </trkpt>
      <trkpt lat="45.95563" lon="1.25224">
        <ele>416</ele>
        <time>2007-05-21T07:13:07Z</time>
      </trkpt>
      <trkpt lat="45.95599" lon="1.25198">
        <ele>416</ele>
        <time>2007-05-21T07:13:23Z</time>
      </trkpt>
      <trkpt lat="45.95648" lon="1.25162">
        <ele>414</ele>
        <time>2007-05-21T07:13:45Z</time>
      </trkpt>
      <trkpt lat="45.95697" lon="1.25177">
        <ele>416</ele>
        <time>2007-05-21T07:14:06Z</time>
      </trkpt>
      <trkpt lat="45.95727" lon="1.25198">
        <ele>416</ele>
        <time>2007-05-21T07:14:20Z</time>
      </trkpt>
      <trkpt lat="45.95752" lon="1.25227">
        <ele>414</ele>
        <time>2007-05-21T07:14:33Z</time>
      </trkpt>
      <trkpt lat="45.95766" lon="1.25265">
        <ele>418</ele>
        <time>2007-05-21T07:14:45Z</time>
      </trkpt>
      <trkpt lat="45.95776" lon="1.25304">
        <ele>419</ele>
        <time>2007-05-21T07:14:56Z</time>
      </trkpt>
      <trkpt lat="45.95788" lon="1.25346">
        <ele>423</ele>
        <time>2007-05-21T07:15:09Z</time>
      </trkpt>
      <trkpt lat="45.95804" lon="1.25375">
        <ele>423</ele>
        <time>2007-05-21T07:15:19Z</time>
      </trkpt>
      <trkpt lat="45.95823" lon="1.25394">
        <ele>423</ele>
        <time>2007-05-21T07:15:29Z</time>
      </trkpt>
      <trkpt lat="45.9583" lon="1.25418">
        <ele>424</ele>
        <time>2007-05-21T07:15:37Z</time>
      </trkpt>
      <trkpt lat="45.95832" lon="1.25442">
        <ele>427</ele>
        <time>2007-05-21T07:15:44Z</time>
      </trkpt>
      <trkpt lat="45.95834" lon="1.25468">
        <ele>430</ele>
        <time>2007-05-21T07:15:51Z</time>
      </trkpt>
      <trkpt lat="45.95839" lon="1.25494">
        <ele>432</ele>
        <time>2007-05-21T07:15:58Z</time>
      </trkpt>
      <trkpt lat="45.95848" lon="1.25528">
        <ele>438</ele>
        <time>2007-05-21T07:16:09Z</time>
      </trkpt>
      <trkpt lat="45.95848" lon="1.25557">
        <ele>439</ele>
        <time>2007-05-21T07:16:17Z</time>
      </trkpt>
      <trkpt lat="45.95843" lon="1.25598">
        <ele>441</ele>
        <time>2007-05-21T07:16:29Z</time>
      </trkpt>
      <trkpt lat="45.95844" lon="1.25652">
        <ele>441</ele>
        <time>2007-05-21T07:16:44Z</time>
      </trkpt>
      <trkpt lat="45.95853" lon="1.25712">
        <ele>440</ele>
        <time>2007-05-21T07:17:01Z</time>
      </trkpt>
      <trkpt lat="45.95859" lon="1.25773">
        <ele>436</ele>
        <time>2007-05-21T07:17:19Z</time>
      </trkpt>
      <trkpt lat="45.95872" lon="1.25838">
        <ele>433</ele>
        <time>2007-05-21T07:17:38Z</time>
      </trkpt>
      <trkpt lat="45.95898" lon="1.25895">
        <ele>434</ele>
        <time>2007-05-21T07:17:56Z</time>
      </trkpt>
      <trkpt lat="45.95929" lon="1.2595">
        <ele>437</ele>
        <time>2007-05-21T07:18:17Z</time>
      </trkpt>
      <trkpt lat="45.95966" lon="1.26041">
        <ele>438</ele>
        <time>2007-05-21T07:18:48Z</time>
      </trkpt>
      <trkpt lat="45.95993" lon="1.26083">
        <ele>440</ele>
        <time>2007-05-21T07:19:04Z</time>
      </trkpt>
      <trkpt lat="45.96014" lon="1.26145">
        <ele>442</ele>
        <time>2007-05-21T07:19:23Z</time>
      </trkpt>
      <trkpt lat="45.96021" lon="1.26196">
        <ele>440</ele>
        <time>2007-05-21T07:19:38Z</time>
      </trkpt>
      <trkpt lat="45.96065" lon="1.2623">
        <ele>439</ele>
        <time>2007-05-21T07:19:58Z</time>
      </trkpt>
      <trkpt lat="45.96102" lon="1.26261">
        <ele>437</ele>
        <time>2007-05-21T07:20:16Z</time>
      </trkpt>
      <trkpt lat="45.9613" lon="1.26308">
        <ele>438</ele>
        <time>2007-05-21T07:20:33Z</time>
      </trkpt>
      <trkpt lat="45.96155" lon="1.26353">
        <ele>439</ele>
        <time>2007-05-21T07:20:49Z</time>
      </trkpt>
      <trkpt lat="45.96178" lon="1.26394">
        <ele>438</ele>
        <time>2007-05-21T07:21:04Z</time>
      </trkpt>
      <trkpt lat="45.96209" lon="1.26443">
        <ele>439</ele>
        <time>2007-05-21T07:21:23Z</time>
      </trkpt>
      <trkpt lat="45.96235" lon="1.2648">
        <ele>440</ele>
        <time>2007-05-21T07:21:37Z</time>
      </trkpt>
      <trkpt lat="45.96286" lon="1.26488">
        <ele>440</ele>
        <time>2007-05-21T07:21:58Z</time>
      </trkpt>
      <trkpt lat="45.9635" lon="1.2649">
        <ele>441</ele>
        <time>2007-05-21T07:22:24Z</time>
      </trkpt>
      <trkpt lat="45.96369" lon="1.26509">
        <ele>442</ele>
        <time>2007-05-21T07:22:34Z</time>
      </trkpt>
      <trkpt lat="45.96372" lon="1.26546">
        <ele>443</ele>
        <time>2007-05-21T07:22:45Z</time>
      </trkpt>
      <trkpt lat="45.9637" lon="1.26575">
        <ele>443</ele>
        <time>2007-05-21T07:22:53Z</time>
      </trkpt>
      <trkpt lat="45.96385" lon="1.26594">
        <ele>445</ele>
        <time>2007-05-21T07:23:02Z</time>
      </trkpt>
      <trkpt lat="45.96404" lon="1.26598">
        <ele>446</ele>
        <time>2007-05-21T07:23:10Z</time>
      </trkpt>
      <trkpt lat="45.96425" lon="1.26602">
        <ele>450</ele>
        <time>2007-05-21T07:23:18Z</time>
      </trkpt>
      <trkpt lat="45.96446" lon="1.26605">
        <ele>450</ele>
        <time>2007-05-21T07:23:27Z</time>
      </trkpt>
      <trkpt lat="45.96467" lon="1.26606">
        <ele>451</ele>
        <time>2007-05-21T07:23:35Z</time>
      </trkpt>
      <trkpt lat="45.96489" lon="1.26604">
        <ele>452</ele>
        <time>2007-05-21T07:23:45Z</time>
      </trkpt>
      <trkpt lat="45.96511" lon="1.26611">
        <ele>456</ele>
        <time>2007-05-21T07:23:54Z</time>
      </trkpt>
      <trkpt lat="45.96532" lon="1.26623">
        <ele>457</ele>
        <time>2007-05-21T07:24:03Z</time>
      </trkpt>
      <trkpt lat="45.96554" lon="1.26632">
        <ele>458</ele>
        <time>2007-05-21T07:24:12Z</time>
      </trkpt>
      <trkpt lat="45.96575" lon="1.26649">
        <ele>459</ele>
        <time>2007-05-21T07:24:22Z</time>
      </trkpt>
      <trkpt lat="45.96596" lon="1.26674">
        <ele>462</ele>
        <time>2007-05-21T07:24:33Z</time>
      </trkpt>
      <trkpt lat="45.96619" lon="1.26689">
        <ele>462</ele>
        <time>2007-05-21T07:24:43Z</time>
      </trkpt>
      <trkpt lat="45.96642" lon="1.26694">
        <ele>462</ele>
        <time>2007-05-21T07:24:53Z</time>
      </trkpt>
      <trkpt lat="45.96677" lon="1.26689">
        <ele>463</ele>
        <time>2007-05-21T07:25:07Z</time>
      </trkpt>
      <trkpt lat="45.96725" lon="1.26686">
        <ele>461</ele>
        <time>2007-05-21T07:25:26Z</time>
      </trkpt>
      <trkpt lat="45.96763" lon="1.26717">
        <ele>460</ele>
        <time>2007-05-21T07:25:44Z</time>
      </trkpt>
      <trkpt lat="45.96804" lon="1.26746">
        <ele>461</ele>
        <time>2007-05-21T07:26:02Z</time>
      </trkpt>
      <trkpt lat="45.96841" lon="1.26772">
        <ele>462</ele>
        <time>2007-05-21T07:26:19Z</time>
      </trkpt>
      <trkpt lat="45.96891" lon="1.26788">
        <ele>461</ele>
        <time>2007-05-21T07:26:40Z</time>
      </trkpt>
      <trkpt lat="45.96948" lon="1.26811">
        <ele>458</ele>
        <time>2007-05-21T07:27:04Z</time>
      </trkpt>
      <trkpt lat="45.97006" lon="1.26826">
        <ele>457</ele>
        <time>2007-05-21T07:27:29Z</time>
      </trkpt>
      <trkpt lat="45.97066" lon="1.26779">
        <ele>453</ele>
        <time>2007-05-21T07:27:57Z</time>
      </trkpt>
      <trkpt lat="45.97126" lon="1.26708">
        <ele>450</ele>
        <time>2007-05-21T07:28:28Z</time>
      </trkpt>
      <trkpt lat="45.9718" lon="1.2666">
        <ele>445</ele>
        <time>2007-05-21T07:28:54Z</time>
      </trkpt>
      <trkpt lat="45.97242" lon="1.26686">
        <ele>447</ele>
        <time>2007-05-21T07:29:21Z</time>
      </trkpt>
      <trkpt lat="45.97308" lon="1.26685">
        <ele>449</ele>
        <time>2007-05-21T07:29:47Z</time>
      </trkpt>
      <trkpt lat="45.97372" lon="1.2662">
        <ele>440</ele>
        <time>2007-05-21T07:30:19Z</time>
      </trkpt>
      <trkpt lat="45.97512" lon="1.26611">
        <ele>426</ele>
        <time>2007-05-21T07:31:18Z</time>
      </trkpt>
      <trkpt lat="45.97575" lon="1.26654">
        <ele>425</ele>
        <time>2007-05-21T07:31:47Z</time>
      </trkpt>
      <trkpt lat="45.9764" lon="1.26711">
        <ele>422</ele>
        <time>2007-05-21T07:32:17Z</time>
      </trkpt>
      <trkpt lat="45.97703" lon="1.26744">
        <ele>415</ele>
        <time>2007-05-21T07:32:46Z</time>
      </trkpt>
      <trkpt lat="45.9778" lon="1.26711">
        <ele>414</ele>
        <time>2007-05-21T07:33:19Z</time>
      </trkpt>
      <trkpt lat="45.97842" lon="1.26654">
        <ele>410</ele>
        <time>2007-05-21T07:33:48Z</time>
      </trkpt>
      <trkpt lat="45.97903" lon="1.26687">
        <ele>410</ele>
        <time>2007-05-21T07:34:17Z</time>
      </trkpt>
      <trkpt lat="45.97969" lon="1.26671">
        <ele>402</ele>
        <time>2007-05-21T07:34:45Z</time>
      </trkpt>
      <trkpt lat="45.98019" lon="1.26644">
        <ele>393</ele>
        <time>2007-05-21T07:35:06Z</time>
      </trkpt>
      <trkpt lat="45.98099" lon="1.26664">
        <ele>386</ele>
        <time>2007-05-21T07:35:41Z</time>
      </trkpt>
      <trkpt lat="45.98141" lon="1.26629">
        <ele>383</ele>
        <time>2007-05-21T07:36:04Z</time>
      </trkpt>
      <trkpt lat="45.98159" lon="1.26695">
        <ele>384</ele>
        <time>2007-05-21T07:36:25Z</time>
      </trkpt>
      <trkpt lat="45.98198" lon="1.26741">
        <ele>378</ele>
        <time>2007-05-21T07:36:45Z</time>
      </trkpt>
      <trkpt lat="45.98241" lon="1.26766">
        <ele>377</ele>
        <time>2007-05-21T07:37:04Z</time>
      </trkpt>
      <trkpt lat="45.98285" lon="1.26789">
        <ele>373</ele>
        <time>2007-05-21T07:37:22Z</time>
      </trkpt>
      <trkpt lat="45.98343" lon="1.26838">
        <ele>371</ele>
        <time>2007-05-21T07:37:50Z</time>
      </trkpt>
      <trkpt lat="45.98387" lon="1.26943">
        <ele>371</ele>
        <time>2007-05-21T07:38:25Z</time>
      </trkpt>
      <trkpt lat="45.98455" lon="1.26985">
        <ele>368</ele>
        <time>2007-05-21T07:38:55Z</time>
      </trkpt>
      <trkpt lat="45.98515" lon="1.26969">
        <ele>370</ele>
        <time>2007-05-21T07:39:19Z</time>
      </trkpt>
      <trkpt lat="45.98565" lon="1.2695">
        <ele>371</ele>
        <time>2007-05-21T07:39:40Z</time>
      </trkpt>
      <trkpt lat="45.98624" lon="1.26931">
        <ele>373</ele>
        <time>2007-05-21T07:40:04Z</time>
      </trkpt>
      <trkpt lat="45.98701" lon="1.26965">
        <ele>372</ele>
        <time>2007-05-21T07:40:37Z</time>
      </trkpt>
      <trkpt lat="45.98791" lon="1.26943">
        <ele>369</ele>
        <time>2007-05-21T07:41:15Z</time>
      </trkpt>
      <trkpt lat="45.98856" lon="1.26886">
        <ele>368</ele>
        <time>2007-05-21T07:41:46Z</time>
      </trkpt>
      <trkpt lat="45.989" lon="1.26859">
        <ele>369</ele>
        <time>2007-05-21T07:42:05Z</time>
      </trkpt>
      <trkpt lat="45.98933" lon="1.2684">
        <ele>371</ele>
        <time>2007-05-21T07:42:19Z</time>
      </trkpt>
      <trkpt lat="45.98961" lon="1.26823">
        <ele>371</ele>
        <time>2007-05-21T07:42:31Z</time>
      </trkpt>
      <trkpt lat="45.98987" lon="1.26806">
        <ele>372</ele>
        <time>2007-05-21T07:42:43Z</time>
      </trkpt>
      <trkpt lat="45.99015" lon="1.26797">
        <ele>377</ele>
        <time>2007-05-21T07:42:54Z</time>
      </trkpt>
      <trkpt lat="45.99039" lon="1.26792">
        <ele>377</ele>
        <time>2007-05-21T07:43:04Z</time>
      </trkpt>
      <trkpt lat="45.99072" lon="1.26784">
        <ele>379</ele>
        <time>2007-05-21T07:43:18Z</time>
      </trkpt>
      <trkpt lat="45.99099" lon="1.26777">
        <ele>381</ele>
        <time>2007-05-21T07:43:29Z</time>
      </trkpt>
      <trkpt lat="45.99129" lon="1.26769">
        <ele>380</ele>
        <time>2007-05-21T07:43:41Z</time>
      </trkpt>
      <trkpt lat="45.99157" lon="1.26766">
        <ele>380</ele>
        <time>2007-05-21T07:43:53Z</time>
      </trkpt>
      <trkpt lat="45.99181" lon="1.26791">
        <ele>381</ele>
        <time>2007-05-21T07:44:05Z</time>
      </trkpt>
      <trkpt lat="45.99205" lon="1.26815">
        <ele>382</ele>
        <time>2007-05-21T07:44:16Z</time>
      </trkpt>
      <trkpt lat="45.9923" lon="1.26839">
        <ele>385</ele>
        <time>2007-05-21T07:44:29Z</time>
      </trkpt>
      <trkpt lat="45.99255" lon="1.26864">
        <ele>385</ele>
        <time>2007-05-21T07:44:41Z</time>
      </trkpt>
      <trkpt lat="45.99273" lon="1.26898">
        <ele>386</ele>
        <time>2007-05-21T07:44:53Z</time>
      </trkpt>
      <trkpt lat="45.99284" lon="1.2694">
        <ele>389</ele>
        <time>2007-05-21T07:45:06Z</time>
      </trkpt>
      <trkpt lat="45.99298" lon="1.26986">
        <ele>390</ele>
        <time>2007-05-21T07:45:20Z</time>
      </trkpt>
      <trkpt lat="45.9931" lon="1.27032">
        <ele>395</ele>
        <time>2007-05-21T07:45:34Z</time>
      </trkpt>
      <trkpt lat="45.99321" lon="1.2708">
        <ele>396</ele>
        <time>2007-05-21T07:45:48Z</time>
      </trkpt>
      <trkpt lat="45.99332" lon="1.27185">
        <ele>400</ele>
        <time>2007-05-21T07:46:18Z</time>
      </trkpt>
      <trkpt lat="45.99331" lon="1.2724">
        <ele>399</ele>
        <time>2007-05-21T07:46:33Z</time>
      </trkpt>
      <trkpt lat="45.99328" lon="1.27298">
        <ele>401</ele>
        <time>2007-05-21T07:46:49Z</time>
      </trkpt>
      <trkpt lat="45.99321" lon="1.27358">
        <ele>401</ele>
        <time>2007-05-21T07:47:06Z</time>
      </trkpt>
      <trkpt lat="45.99315" lon="1.27439">
        <ele>399</ele>
        <time>2007-05-21T07:47:30Z</time>
      </trkpt>
      <trkpt lat="45.99325" lon="1.2748">
        <ele>399</ele>
        <time>2007-05-21T07:47:43Z</time>
      </trkpt>
      <trkpt lat="45.9939" lon="1.27498">
        <ele>392</ele>
        <time>2007-05-21T07:48:10Z</time>
      </trkpt>
      <trkpt lat="45.9951" lon="1.27552">
        <ele>378</ele>
        <time>2007-05-21T07:49:01Z</time>
      </trkpt>
      <trkpt lat="45.99644" lon="1.27629">
        <ele>366</ele>
        <time>2007-05-21T07:49:59Z</time>
      </trkpt>
      <trkpt lat="45.99774" lon="1.27745">
        <ele>354</ele>
        <time>2007-05-21T07:51:01Z</time>
      </trkpt>
      <trkpt lat="45.99881" lon="1.27853">
        <ele>346</ele>
        <time>2007-05-21T07:51:54Z</time>
      </trkpt>
      <trkpt lat="45.99967" lon="1.27888">
        <ele>345</ele>
        <time>2007-05-21T07:52:29Z</time>
      </trkpt>
      <trkpt lat="46.00019" lon="1.27889">
        <ele>351</ele>
        <time>2007-05-21T07:52:50Z</time>
      </trkpt>
      <trkpt lat="46.00062" lon="1.27886">
        <ele>354</ele>
        <time>2007-05-21T07:53:07Z</time>
      </trkpt>
      <trkpt lat="46.00086" lon="1.27862">
        <ele>359</ele>
        <time>2007-05-21T07:53:21Z</time>
      </trkpt>
      <trkpt lat="46.00092" lon="1.27822">
        <ele>359</ele>
        <time>2007-05-21T07:53:33Z</time>
      </trkpt>
      <trkpt lat="46.00103" lon="1.27793">
        <ele>359</ele>
        <time>2007-05-21T07:53:42Z</time>
      </trkpt>
      <trkpt lat="46.00123" lon="1.27762">
        <ele>360</ele>
        <time>2007-05-21T07:53:54Z</time>
      </trkpt>
      <trkpt lat="46.00121" lon="1.27696">
        <ele>361</ele>
        <time>2007-05-21T07:54:12Z</time>
      </trkpt>
      <trkpt lat="46.00117" lon="1.27647">
        <ele>362</ele>
        <time>2007-05-21T07:54:26Z</time>
      </trkpt>
      <trkpt lat="46.00113" lon="1.276">
        <ele>363</ele>
        <time>2007-05-21T07:54:39Z</time>
      </trkpt>
      <trkpt lat="46.00116" lon="1.27541">
        <ele>362</ele>
        <time>2007-05-21T07:54:55Z</time>
      </trkpt>
      <trkpt lat="46.00131" lon="1.27466">
        <ele>361</ele>
        <time>2007-05-21T07:55:17Z</time>
      </trkpt>
      <trkpt lat="46.00119" lon="1.27381">
        <ele>360</ele>
        <time>2007-05-21T07:55:42Z</time>
      </trkpt>
      <trkpt lat="46.00124" lon="1.2729">
        <ele>362</ele>
        <time>2007-05-21T07:56:08Z</time>
      </trkpt>
      <trkpt lat="46.00136" lon="1.27225">
        <ele>365</ele>
        <time>2007-05-21T07:56:26Z</time>
      </trkpt>
      <trkpt lat="46.00145" lon="1.27182">
        <ele>367</ele>
        <time>2007-05-21T07:56:39Z</time>
      </trkpt>
      <trkpt lat="46.00152" lon="1.27155">
        <ele>371</ele>
        <time>2007-05-21T07:56:47Z</time>
      </trkpt>
      <trkpt lat="46.00163" lon="1.2712">
        <ele>371</ele>
        <time>2007-05-21T07:56:57Z</time>
      </trkpt>
      <trkpt lat="46.00173" lon="1.27095">
        <ele>377</ele>
        <time>2007-05-21T07:57:06Z</time>
      </trkpt>
      <trkpt lat="46.00184" lon="1.27068">
        <ele>379</ele>
        <time>2007-05-21T07:57:14Z</time>
      </trkpt>
      <trkpt lat="46.00195" lon="1.27034">
        <ele>381</ele>
        <time>2007-05-21T07:57:25Z</time>
      </trkpt>
      <trkpt lat="46.00192" lon="1.26995">
        <ele>381</ele>
        <time>2007-05-21T07:57:36Z</time>
      </trkpt>
      <trkpt lat="46.0019" lon="1.26956">
        <ele>381</ele>
        <time>2007-05-21T07:57:46Z</time>
      </trkpt>
      <trkpt lat="46.00189" lon="1.26921">
        <ele>381</ele>
        <time>2007-05-21T07:57:57Z</time>
      </trkpt>
      <trkpt lat="46.00199" lon="1.26889">
        <ele>381</ele>
        <time>2007-05-21T07:58:06Z</time>
      </trkpt>
      <trkpt lat="46.00224" lon="1.26805">
        <ele>377</ele>
        <time>2007-05-21T07:58:32Z</time>
      </trkpt>
      <trkpt lat="46.00309" lon="1.26705">
        <ele>367</ele>
        <time>2007-05-21T07:59:17Z</time>
      </trkpt>
      <trkpt lat="46.00381" lon="1.26656">
        <ele>358</ele>
        <time>2007-05-21T07:59:49Z</time>
      </trkpt>
      <trkpt lat="46.00443" lon="1.26551">
        <ele>353</ele>
        <time>2007-05-21T08:00:28Z</time>
      </trkpt>
      <trkpt lat="46.00485" lon="1.26498">
        <ele>355</ele>
        <time>2007-05-21T08:00:50Z</time>
      </trkpt>
      <trkpt lat="46.00513" lon="1.26473">
        <ele>359</ele>
        <time>2007-05-21T08:01:03Z</time>
      </trkpt>
      <trkpt lat="46.00546" lon="1.26457">
        <ele>360</ele>
        <time>2007-05-21T08:01:17Z</time>
      </trkpt>
      <trkpt lat="46.00609" lon="1.26415">
        <ele>366</ele>
        <time>2007-05-21T08:01:46Z</time>
      </trkpt>
      <trkpt lat="46.00637" lon="1.26378">
        <ele>367</ele>
        <time>2007-05-21T08:02:01Z</time>
      </trkpt>
      <trkpt lat="46.00656" lon="1.26346">
        <ele>369</ele>
        <time>2007-05-21T08:02:13Z</time>
      </trkpt>
      <trkpt lat="46.00665" lon="1.26315">
        <ele>370</ele>
        <time>2007-05-21T08:02:22Z</time>
      </trkpt>
      <trkpt lat="46.00672" lon="1.26284">
        <ele>370</ele>
        <time>2007-05-21T08:02:31Z</time>
      </trkpt>
      <trkpt lat="46.00676" lon="1.26239">
        <ele>371</ele>
        <time>2007-05-21T08:02:44Z</time>
      </trkpt>
      <trkpt lat="46.00679" lon="1.26201">
        <ele>371</ele>
        <time>2007-05-21T08:02:54Z</time>
      </trkpt>
      <trkpt lat="46.00687" lon="1.26177">
        <ele>371</ele>
        <time>2007-05-21T08:03:02Z</time>
      </trkpt>
      <trkpt lat="46.0071" lon="1.26172">
        <ele>371</ele>
        <time>2007-05-21T08:03:12Z</time>
      </trkpt>
      <trkpt lat="46.00767" lon="1.26193">
        <ele>369</ele>
        <time>2007-05-21T08:03:36Z</time>
      </trkpt>
      <trkpt lat="46.00846" lon="1.26184">
        <ele>364</ele>
        <time>2007-05-21T08:04:08Z</time>
      </trkpt>
      <trkpt lat="46.00932" lon="1.26153">
        <ele>359</ele>
        <time>2007-05-21T08:04:44Z</time>
      </trkpt>
      <trkpt lat="46.01002" lon="1.26066">
        <ele>353</ele>
        <time>2007-05-21T08:05:21Z</time>
      </trkpt>
      <trkpt lat="46.01017" lon="1.25966">
        <ele>359</ele>
        <time>2007-05-21T08:05:51Z</time>
      </trkpt>
      <trkpt lat="46.01024" lon="1.25946">
        <ele>360</ele>
        <time>2007-05-21T08:05:58Z</time>
      </trkpt>
      <trkpt lat="46.01038" lon="1.25936">
        <ele>361</ele>
        <time>2007-05-21T08:06:04Z</time>
      </trkpt>
      <trkpt lat="46.01047" lon="1.25929">
        <ele>362</ele>
        <time>2007-05-21T08:06:09Z</time>
      </trkpt>
      <trkpt lat="46.01052" lon="1.25921">
        <ele>363</ele>
        <time>2007-05-21T08:06:12Z</time>
      </trkpt>
      <trkpt lat="46.01059" lon="1.25915">
        <ele>365</ele>
        <time>2007-05-21T08:06:15Z</time>
      </trkpt>
      <trkpt lat="46.01065" lon="1.25908">
        <ele>365</ele>
        <time>2007-05-21T08:06:18Z</time>
      </trkpt>
      <trkpt lat="46.01072" lon="1.25901">
        <ele>366</ele>
        <time>2007-05-21T08:06:22Z</time>
      </trkpt>
      <trkpt lat="46.01078" lon="1.25892">
        <ele>365</ele>
        <time>2007-05-21T08:06:25Z</time>
      </trkpt>
      <trkpt lat="46.01087" lon="1.25888">
        <ele>370</ele>
        <time>2007-05-21T08:06:29Z</time>
      </trkpt>
      <trkpt lat="46.01105" lon="1.25883">
        <ele>370</ele>
        <time>2007-05-21T08:06:36Z</time>
      </trkpt>
      <trkpt lat="46.01126" lon="1.25877">
        <ele>371</ele>
        <time>2007-05-21T08:06:45Z</time>
      </trkpt>
      <trkpt lat="46.01143" lon="1.25876">
        <ele>371</ele>
        <time>2007-05-21T08:06:52Z</time>
      </trkpt>
      <trkpt lat="46.01165" lon="1.25878">
        <ele>372</ele>
        <time>2007-05-21T08:07:01Z</time>
      </trkpt>
      <trkpt lat="46.0118" lon="1.2589">
        <ele>375</ele>
        <time>2007-05-21T08:07:08Z</time>
      </trkpt>
      <trkpt lat="46.012" lon="1.25897">
        <ele>376</ele>
        <time>2007-05-21T08:07:16Z</time>
      </trkpt>
      <trkpt lat="46.01221" lon="1.25912">
        <ele>377</ele>
        <time>2007-05-21T08:07:26Z</time>
      </trkpt>
      <trkpt lat="46.01244" lon="1.25928">
        <ele>379</ele>
        <time>2007-05-21T08:07:36Z</time>
      </trkpt>
      <trkpt lat="46.01267" lon="1.25939">
        <ele>380</ele>
        <time>2007-05-21T08:07:46Z</time>
      </trkpt>
      <trkpt lat="46.01293" lon="1.2595">
        <ele>380</ele>
        <time>2007-05-21T08:07:57Z</time>
      </trkpt>
      <trkpt lat="46.01329" lon="1.25962">
        <ele>381</ele>
        <time>2007-05-21T08:08:12Z</time>
      </trkpt>
      <trkpt lat="46.01367" lon="1.25973">
        <ele>381</ele>
        <time>2007-05-21T08:08:28Z</time>
      </trkpt>
      <trkpt lat="46.01402" lon="1.25986">
        <ele>381</ele>
        <time>2007-05-21T08:08:42Z</time>
      </trkpt>
      <trkpt lat="46.01435" lon="1.26009">
        <ele>379</ele>
        <time>2007-05-21T08:08:57Z</time>
      </trkpt>
      <trkpt lat="46.01464" lon="1.26029">
        <ele>379</ele>
        <time>2007-05-21T08:09:10Z</time>
      </trkpt>
      <trkpt lat="46.015" lon="1.26045">
        <ele>379</ele>
        <time>2007-05-21T08:09:25Z</time>
      </trkpt>
      <trkpt lat="46.0153" lon="1.26052">
        <ele>381</ele>
        <time>2007-05-21T08:09:37Z</time>
      </trkpt>
      <trkpt lat="46.01558" lon="1.26059">
        <ele>381</ele>
        <time>2007-05-21T08:09:49Z</time>
      </trkpt>
      <trkpt lat="46.01581" lon="1.26059">
        <ele>382</ele>
        <time>2007-05-21T08:09:58Z</time>
      </trkpt>
      <trkpt lat="46.01612" lon="1.26061">
        <ele>380</ele>
        <time>2007-05-21T08:10:11Z</time>
      </trkpt>
      <trkpt lat="46.01676" lon="1.26074">
        <ele>381</ele>
        <time>2007-05-21T08:10:36Z</time>
      </trkpt>
      <trkpt lat="46.01714" lon="1.26097">
        <ele>382</ele>
        <time>2007-05-21T08:10:53Z</time>
      </trkpt>
      <trkpt lat="46.01754" lon="1.26114">
        <ele>375</ele>
        <time>2007-05-21T08:11:10Z</time>
      </trkpt>
      <trkpt lat="46.01783" lon="1.26119">
        <ele>374</ele>
        <time>2007-05-21T08:11:31Z</time>
      </trkpt>
      <trkpt lat="46.01764" lon="1.26066">
        <ele>373</ele>
        <time>2007-05-21T08:11:48Z</time>
      </trkpt>
      <trkpt lat="46.01773" lon="1.26009">
        <ele>371</ele>
        <time>2007-05-21T08:12:04Z</time>
      </trkpt>
      <trkpt lat="46.01785" lon="1.25968">
        <ele>373</ele>
        <time>2007-05-21T08:12:17Z</time>
      </trkpt>
      <trkpt lat="46.01795" lon="1.25946">
        <ele>374</ele>
        <time>2007-05-21T08:12:24Z</time>
      </trkpt>
      <trkpt lat="46.01804" lon="1.25929">
        <ele>375</ele>
        <time>2007-05-21T08:12:30Z</time>
      </trkpt>
      <trkpt lat="46.01811" lon="1.25909">
        <ele>380</ele>
        <time>2007-05-21T08:12:36Z</time>
      </trkpt>
      <trkpt lat="46.01818" lon="1.25886">
        <ele>381</ele>
        <time>2007-05-21T08:12:44Z</time>
      </trkpt>
      <trkpt lat="46.01835" lon="1.25876">
        <ele>382</ele>
        <time>2007-05-21T08:12:51Z</time>
      </trkpt>
      <trkpt lat="46.01849" lon="1.25869">
        <ele>383</ele>
        <time>2007-05-21T08:12:57Z</time>
      </trkpt>
      <trkpt lat="46.01862" lon="1.25859">
        <ele>383</ele>
        <time>2007-05-21T08:13:03Z</time>
      </trkpt>
      <trkpt lat="46.01872" lon="1.25846">
        <ele>384</ele>
        <time>2007-05-21T08:13:08Z</time>
      </trkpt>
      <trkpt lat="46.01878" lon="1.25828">
        <ele>392</ele>
        <time>2007-05-21T08:13:14Z</time>
      </trkpt>
      <trkpt lat="46.01879" lon="1.2581">
        <ele>393</ele>
        <time>2007-05-21T08:13:19Z</time>
      </trkpt>
      <trkpt lat="46.0188" lon="1.25798">
        <ele>393</ele>
        <time>2007-05-21T08:13:22Z</time>
      </trkpt>
      <trkpt lat="46.01882" lon="1.25787">
        <ele>394</ele>
        <time>2007-05-21T08:13:26Z</time>
      </trkpt>
      <trkpt lat="46.01885" lon="1.25776">
        <ele>395</ele>
        <time>2007-05-21T08:13:29Z</time>
      </trkpt>
      <trkpt lat="46.01887" lon="1.25765">
        <ele>395</ele>
        <time>2007-05-21T08:13:32Z</time>
      </trkpt>
      <trkpt lat="46.01892" lon="1.2575">
        <ele>398</ele>
        <time>2007-05-21T08:13:36Z</time>
      </trkpt>
      <trkpt lat="46.01895" lon="1.25725">
        <ele>398</ele>
        <time>2007-05-21T08:13:44Z</time>
      </trkpt>
      <trkpt lat="46.01911" lon="1.25719">
        <ele>399</ele>
        <time>2007-05-21T08:13:51Z</time>
      </trkpt>
      <trkpt lat="46.01935" lon="1.25718">
        <ele>402</ele>
        <time>2007-05-21T08:14:00Z</time>
      </trkpt>
      <trkpt lat="46.01957" lon="1.25717">
        <ele>403</ele>
        <time>2007-05-21T08:14:09Z</time>
      </trkpt>
      <trkpt lat="46.01983" lon="1.25718">
        <ele>404</ele>
        <time>2007-05-21T08:14:20Z</time>
      </trkpt>
      <trkpt lat="46.02009" lon="1.2573">
        <ele>408</ele>
        <time>2007-05-21T08:14:31Z</time>
      </trkpt>
      <trkpt lat="46.02034" lon="1.2575">
        <ele>409</ele>
        <time>2007-05-21T08:14:42Z</time>
      </trkpt>
      <trkpt lat="46.02058" lon="1.25765">
        <ele>406</ele>
        <time>2007-05-21T08:14:53Z</time>
      </trkpt>
      <trkpt lat="46.02085" lon="1.2577">
        <ele>408</ele>
        <time>2007-05-21T08:15:04Z</time>
      </trkpt>
      <trkpt lat="46.02116" lon="1.25777">
        <ele>408</ele>
        <time>2007-05-21T08:15:17Z</time>
      </trkpt>
      <trkpt lat="46.02149" lon="1.25781">
        <ele>408</ele>
        <time>2007-05-21T08:15:30Z</time>
      </trkpt>
      <trkpt lat="46.02194" lon="1.25779">
        <ele>408</ele>
        <time>2007-05-21T08:15:49Z</time>
      </trkpt>
      <trkpt lat="46.02239" lon="1.25783">
        <ele>407</ele>
        <time>2007-05-21T08:16:08Z</time>
      </trkpt>
      <trkpt lat="46.02282" lon="1.25822">
        <ele>408</ele>
        <time>2007-05-21T08:16:28Z</time>
      </trkpt>
      <trkpt lat="46.02325" lon="1.25858">
        <ele>401</ele>
        <time>2007-05-21T08:16:48Z</time>
      </trkpt>
      <trkpt lat="46.02376" lon="1.25883">
        <ele>403</ele>
        <time>2007-05-21T08:17:11Z</time>
      </trkpt>
      <trkpt lat="46.02406" lon="1.25899">
        <ele>403</ele>
        <time>2007-05-21T08:17:23Z</time>
      </trkpt>
      <trkpt lat="46.02408" lon="1.25937">
        <ele>397</ele>
        <time>2007-05-21T08:17:36Z</time>
      </trkpt>
      <trkpt lat="46.02408" lon="1.25978">
        <ele>395</ele>
        <time>2007-05-21T08:17:48Z</time>
      </trkpt>
      <trkpt lat="46.02426" lon="1.26024">
        <ele>399</ele>
        <time>2007-05-21T08:18:03Z</time>
      </trkpt>
      <trkpt lat="46.02455" lon="1.26067">
        <ele>399</ele>
        <time>2007-05-21T08:18:20Z</time>
      </trkpt>
      <trkpt lat="46.02522" lon="1.26133">
        <ele>399</ele>
        <time>2007-05-21T08:18:53Z</time>
      </trkpt>
      <trkpt lat="46.02558" lon="1.26105">
        <ele>404</ele>
        <time>2007-05-21T08:19:09Z</time>
      </trkpt>
      <trkpt lat="46.02585" lon="1.2611">
        <ele>413</ele>
        <time>2007-05-21T08:19:21Z</time>
      </trkpt>
      <trkpt lat="46.0261" lon="1.26133">
        <ele>412</ele>
        <time>2007-05-21T08:19:33Z</time>
      </trkpt>
      <trkpt lat="46.02638" lon="1.26154">
        <ele>413</ele>
        <time>2007-05-21T08:19:46Z</time>
      </trkpt>
      <trkpt lat="46.02666" lon="1.26172">
        <ele>410</ele>
        <time>2007-05-21T08:19:58Z</time>
      </trkpt>
      <trkpt lat="46.02692" lon="1.26194">
        <ele>415</ele>
        <time>2007-05-21T08:20:10Z</time>
      </trkpt>
      <trkpt lat="46.02717" lon="1.26216">
        <ele>416</ele>
        <time>2007-05-21T08:20:22Z</time>
      </trkpt>
      <trkpt lat="46.02734" lon="1.26241">
        <ele>416</ele>
        <time>2007-05-21T08:20:32Z</time>
      </trkpt>
      <trkpt lat="46.02756" lon="1.26266">
        <ele>417</ele>
        <time>2007-05-21T08:20:44Z</time>
      </trkpt>
      <trkpt lat="46.02781" lon="1.26286">
        <ele>417</ele>
        <time>2007-05-21T08:20:55Z</time>
      </trkpt>
      <trkpt lat="46.02804" lon="1.26295">
        <ele>418</ele>
        <time>2007-05-21T08:21:05Z</time>
      </trkpt>
      <trkpt lat="46.02824" lon="1.26307">
        <ele>417</ele>
        <time>2007-05-21T08:21:14Z</time>
      </trkpt>
      <trkpt lat="46.02791" lon="1.26345">
        <ele>412</ele>
        <time>2007-05-21T08:21:32Z</time>
      </trkpt>
      <trkpt lat="46.02779" lon="1.26398">
        <ele>412</ele>
        <time>2007-05-21T08:21:47Z</time>
      </trkpt>
      <trkpt lat="46.02765" lon="1.26446">
        <ele>411</ele>
        <time>2007-05-21T08:22:02Z</time>
      </trkpt>
      <trkpt lat="46.02741" lon="1.26502">
        <ele>410</ele>
        <time>2007-05-21T08:22:20Z</time>
      </trkpt>
      <trkpt lat="46.02702" lon="1.26609">
        <ele>404</ele>
        <time>2007-05-21T08:22:54Z</time>
      </trkpt>
      <trkpt lat="46.02661" lon="1.26726">
        <ele>400</ele>
        <time>2007-05-21T08:23:30Z</time>
      </trkpt>
      <trkpt lat="46.02626" lon="1.2684">
        <ele>395</ele>
        <time>2007-05-21T08:24:05Z</time>
      </trkpt>
      <trkpt lat="46.02599" lon="1.26944">
        <ele>393</ele>
        <time>2007-05-21T08:24:36Z</time>
      </trkpt>
      <trkpt lat="46.0258" lon="1.2701">
        <ele>395</ele>
        <time>2007-05-21T08:24:56Z</time>
      </trkpt>
      <trkpt lat="46.02565" lon="1.27091">
        <ele>400</ele>
        <time>2007-05-21T08:25:19Z</time>
      </trkpt>
      <trkpt lat="46.02571" lon="1.27135">
        <ele>402</ele>
        <time>2007-05-21T08:25:36Z</time>
      </trkpt>
      <trkpt lat="46.02627" lon="1.27103">
        <ele>400</ele>
        <time>2007-05-21T08:26:01Z</time>
      </trkpt>
      <trkpt lat="46.0271" lon="1.27134">
        <ele>396</ele>
        <time>2007-05-21T08:26:36Z</time>
      </trkpt>
      <trkpt lat="46.02786" lon="1.27185">
        <ele>392</ele>
        <time>2007-05-21T08:27:10Z</time>
      </trkpt>
      <trkpt lat="46.02824" lon="1.27252">
        <ele>392</ele>
        <time>2007-05-21T08:27:35Z</time>
      </trkpt>
      <trkpt lat="46.02835" lon="1.27318">
        <ele>391</ele>
        <time>2007-05-21T08:27:54Z</time>
      </trkpt>
      <trkpt lat="46.02844" lon="1.2737">
        <ele>396</ele>
        <time>2007-05-21T08:28:09Z</time>
      </trkpt>
      <trkpt lat="46.02858" lon="1.2741">
        <ele>398</ele>
        <time>2007-05-21T08:28:22Z</time>
      </trkpt>
      <trkpt lat="46.0288" lon="1.27443">
        <ele>401</ele>
        <time>2007-05-21T08:28:35Z</time>
      </trkpt>
      <trkpt lat="46.02917" lon="1.27488">
        <ele>393</ele>
        <time>2007-05-21T08:28:55Z</time>
      </trkpt>
      <trkpt lat="46.02899" lon="1.27588">
        <ele>397</ele>
        <time>2007-05-21T08:29:25Z</time>
      </trkpt>
      <trkpt lat="46.02918" lon="1.27683">
        <ele>386</ele>
        <time>2007-05-21T08:29:55Z</time>
      </trkpt>
      <trkpt lat="46.02977" lon="1.27731">
        <ele>381</ele>
        <time>2007-05-21T08:30:22Z</time>
      </trkpt>
      <trkpt lat="46.03037" lon="1.27787">
        <ele>375</ele>
        <time>2007-05-21T08:30:51Z</time>
      </trkpt>
      <trkpt lat="46.03093" lon="1.27755">
        <ele>370</ele>
        <time>2007-05-21T08:31:17Z</time>
      </trkpt>
      <trkpt lat="46.0317" lon="1.27763">
        <ele>371</ele>
        <time>2007-05-21T08:31:49Z</time>
      </trkpt>
      <trkpt lat="46.03239" lon="1.27795">
        <ele>373</ele>
        <time>2007-05-21T08:32:18Z</time>
      </trkpt>
      <trkpt lat="46.0329" lon="1.27821">
        <ele>369</ele>
        <time>2007-05-21T08:32:41Z</time>
      </trkpt>
      <trkpt lat="46.03279" lon="1.2788">
        <ele>369</ele>
        <time>2007-05-21T08:32:58Z</time>
      </trkpt>
      <trkpt lat="46.03276" lon="1.27925">
        <ele>371</ele>
        <time>2007-05-21T08:33:11Z</time>
      </trkpt>
      <trkpt lat="46.03282" lon="1.28053">
        <ele>372</ele>
        <time>2007-05-21T08:33:48Z</time>
      </trkpt>
      <trkpt lat="46.0327" lon="1.28111">
        <ele>370</ele>
        <time>2007-05-21T08:34:05Z</time>
      </trkpt>
      <trkpt lat="46.03225" lon="1.28154">
        <ele>369</ele>
        <time>2007-05-21T08:34:27Z</time>
      </trkpt>
      <trkpt lat="46.03163" lon="1.28225">
        <ele>367</ele>
        <time>2007-05-21T08:34:59Z</time>
      </trkpt>
      <trkpt lat="46.03133" lon="1.28259">
        <ele>369</ele>
        <time>2007-05-21T08:35:14Z</time>
      </trkpt>
      <trkpt lat="46.03127" lon="1.28292">
        <ele>370</ele>
        <time>2007-05-21T08:35:25Z</time>
      </trkpt>
      <trkpt lat="46.03133" lon="1.28366">
        <ele>368</ele>
        <time>2007-05-21T08:35:46Z</time>
      </trkpt>
      <trkpt lat="46.03118" lon="1.28419">
        <ele>365</ele>
        <time>2007-05-21T08:36:03Z</time>
      </trkpt>
      <trkpt lat="46.031" lon="1.28464">
        <ele>365</ele>
        <time>2007-05-21T08:36:17Z</time>
      </trkpt>
      <trkpt lat="46.03088" lon="1.28516">
        <ele>364</ele>
        <time>2007-05-21T08:36:33Z</time>
      </trkpt>
      <trkpt lat="46.03062" lon="1.28543">
        <ele>366</ele>
        <time>2007-05-21T08:36:46Z</time>
      </trkpt>
      <trkpt lat="46.03034" lon="1.28546">
        <ele>367</ele>
        <time>2007-05-21T08:36:57Z</time>
      </trkpt>
      <trkpt lat="46.03005" lon="1.28552">
        <ele>367</ele>
        <time>2007-05-21T08:37:09Z</time>
      </trkpt>
      <trkpt lat="46.02976" lon="1.28601">
        <ele>369</ele>
        <time>2007-05-21T08:37:27Z</time>
      </trkpt>
      <trkpt lat="46.02945" lon="1.28634">
        <ele>369</ele>
        <time>2007-05-21T08:37:43Z</time>
      </trkpt>
      <trkpt lat="46.02905" lon="1.28643">
        <ele>372</ele>
        <time>2007-05-21T08:38:00Z</time>
      </trkpt>
      <trkpt lat="46.02866" lon="1.28639">
        <ele>372</ele>
        <time>2007-05-21T08:38:16Z</time>
      </trkpt>
      <trkpt lat="46.02836" lon="1.28651">
        <ele>370</ele>
        <time>2007-05-21T08:38:28Z</time>
      </trkpt>
      <trkpt lat="46.02804" lon="1.28631">
        <ele>375</ele>
        <time>2007-05-21T08:38:42Z</time>
      </trkpt>
      <trkpt lat="46.02795" lon="1.28633">
        <ele>375</ele>
        <time>2007-05-21T08:38:46Z</time>
      </trkpt>
      <trkpt lat="46.02787" lon="1.28639">
        <ele>375</ele>
        <time>2007-05-21T08:38:50Z</time>
      </trkpt>
      <trkpt lat="46.02772" lon="1.28663">
        <ele>376</ele>
        <time>2007-05-21T08:38:59Z</time>
      </trkpt>
      <trkpt lat="46.02766" lon="1.2867">
        <ele>375</ele>
        <time>2007-05-21T08:39:02Z</time>
      </trkpt>
      <trkpt lat="46.02765" lon="1.28682">
        <ele>374</ele>
        <time>2007-05-21T08:39:05Z</time>
      </trkpt>
      <trkpt lat="46.02762" lon="1.28709">
        <ele>373</ele>
        <time>2007-05-21T08:39:13Z</time>
      </trkpt>
      <trkpt lat="46.02751" lon="1.28732">
        <ele>373</ele>
        <time>2007-05-21T08:39:21Z</time>
      </trkpt>
      <trkpt lat="46.0273" lon="1.28774">
        <ele>372</ele>
        <time>2007-05-21T08:39:36Z</time>
      </trkpt>
      <trkpt lat="46.02703" lon="1.28808">
        <ele>371</ele>
        <time>2007-05-21T08:39:50Z</time>
      </trkpt>
      <trkpt lat="46.02677" lon="1.28814">
        <ele>371</ele>
        <time>2007-05-21T08:40:01Z</time>
      </trkpt>
      <trkpt lat="46.02655" lon="1.28839">
        <ele>369</ele>
        <time>2007-05-21T08:40:12Z</time>
      </trkpt>
      <trkpt lat="46.0264" lon="1.28868">
        <ele>368</ele>
        <time>2007-05-21T08:40:22Z</time>
      </trkpt>
      <trkpt lat="46.02604" lon="1.28884">
        <ele>368</ele>
        <time>2007-05-21T08:40:38Z</time>
      </trkpt>
      <trkpt lat="46.02598" lon="1.28897">
        <ele>367</ele>
        <time>2007-05-21T08:40:42Z</time>
      </trkpt>
      <trkpt lat="46.02588" lon="1.28924">
        <ele>367</ele>
        <time>2007-05-21T08:40:51Z</time>
      </trkpt>
      <trkpt lat="46.02584" lon="1.28946">
        <ele>366</ele>
        <time>2007-05-21T08:40:57Z</time>
      </trkpt>
      <trkpt lat="46.02588" lon="1.28961">
        <ele>367</ele>
        <time>2007-05-21T08:41:02Z</time>
      </trkpt>
      <trkpt lat="46.02598" lon="1.28989">
        <ele>367</ele>
        <time>2007-05-21T08:41:11Z</time>
      </trkpt>
      <trkpt lat="46.02611" lon="1.29007">
        <ele>368</ele>
        <time>2007-05-21T08:41:18Z</time>
      </trkpt>
      <trkpt lat="46.02616" lon="1.29019">
        <ele>368</ele>
        <time>2007-05-21T08:41:22Z</time>
      </trkpt>
      <trkpt lat="46.02613" lon="1.29038">
        <ele>369</ele>
        <time>2007-05-21T08:41:28Z</time>
      </trkpt>
      <trkpt lat="46.02607" lon="1.29051">
        <ele>370</ele>
        <time>2007-05-21T08:41:33Z</time>
      </trkpt>
      <trkpt lat="46.02597" lon="1.2907">
        <ele>373</ele>
        <time>2007-05-21T08:41:40Z</time>
      </trkpt>
      <trkpt lat="46.02588" lon="1.29096">
        <ele>377</ele>
        <time>2007-05-21T08:41:48Z</time>
      </trkpt>
      <trkpt lat="46.02582" lon="1.29147">
        <ele>386</ele>
        <time>2007-05-21T08:42:04Z</time>
      </trkpt>
      <trkpt lat="46.02591" lon="1.2918">
        <ele>380</ele>
        <time>2007-05-21T08:42:14Z</time>
      </trkpt>
      <trkpt lat="46.026" lon="1.2921">
        <ele>378</ele>
        <time>2007-05-21T08:42:23Z</time>
      </trkpt>
      <trkpt lat="46.02605" lon="1.2924">
        <ele>378</ele>
        <time>2007-05-21T08:42:32Z</time>
      </trkpt>
      <trkpt lat="46.02584" lon="1.29272">
        <ele>378</ele>
        <time>2007-05-21T08:42:45Z</time>
      </trkpt>
      <trkpt lat="46.02555" lon="1.29285">
        <ele>382</ele>
        <time>2007-05-21T08:42:57Z</time>
      </trkpt>
      <trkpt lat="46.02519" lon="1.29301">
        <ele>382</ele>
        <time>2007-05-21T08:43:12Z</time>
      </trkpt>
      <trkpt lat="46.02476" lon="1.29317">
        <ele>384</ele>
        <time>2007-05-21T08:43:30Z</time>
      </trkpt>
      <trkpt lat="46.02426" lon="1.2934">
        <ele>377</ele>
        <time>2007-05-21T08:43:51Z</time>
      </trkpt>
      <trkpt lat="46.02369" lon="1.29344">
        <ele>376</ele>
        <time>2007-05-21T08:44:14Z</time>
      </trkpt>
      <trkpt lat="46.02317" lon="1.29338">
        <ele>377</ele>
        <time>2007-05-21T08:44:34Z</time>
      </trkpt>
      <trkpt lat="46.02279" lon="1.29326">
        <ele>384</ele>
        <time>2007-05-21T08:44:50Z</time>
      </trkpt>
      <trkpt lat="46.02248" lon="1.29304">
        <ele>384</ele>
        <time>2007-05-21T08:45:04Z</time>
      </trkpt>
      <trkpt lat="46.02212" lon="1.2929">
        <ele>386</ele>
        <time>2007-05-21T08:45:19Z</time>
      </trkpt>
      <trkpt lat="46.02174" lon="1.29287">
        <ele>387</ele>
        <time>2007-05-21T08:45:34Z</time>
      </trkpt>
      <trkpt lat="46.02137" lon="1.29288">
        <ele>391</ele>
        <time>2007-05-21T08:45:49Z</time>
      </trkpt>
      <trkpt lat="46.02103" lon="1.29289">
        <ele>392</ele>
        <time>2007-05-21T08:46:02Z</time>
      </trkpt>
      <trkpt lat="46.02078" lon="1.29291">
        <ele>399</ele>
        <time>2007-05-21T08:46:12Z</time>
      </trkpt>
      <trkpt lat="46.0204" lon="1.29316">
        <ele>400</ele>
        <time>2007-05-21T08:46:29Z</time>
      </trkpt>
      <trkpt lat="46.0201" lon="1.29336">
        <ele>396</ele>
        <time>2007-05-21T08:46:43Z</time>
      </trkpt>
      <trkpt lat="46.01979" lon="1.29361">
        <ele>398</ele>
        <time>2007-05-21T08:46:57Z</time>
      </trkpt>
      <trkpt lat="46.01957" lon="1.29397">
        <ele>398</ele>
        <time>2007-05-21T08:47:10Z</time>
      </trkpt>
      <trkpt lat="46.0195" lon="1.2943">
        <ele>400</ele>
        <time>2007-05-21T08:47:20Z</time>
      </trkpt>
      <trkpt lat="46.01954" lon="1.2944">
        <ele>400</ele>
        <time>2007-05-21T08:47:28Z</time>
      </trkpt>
      <trkpt lat="46.01938" lon="1.29445">
        <ele>401</ele>
        <time>2007-05-21T08:47:50Z</time>
      </trkpt>
      <trkpt lat="46.01912" lon="1.29405">
        <ele>403</ele>
        <time>2007-05-21T08:48:05Z</time>
      </trkpt>
      <trkpt lat="46.01886" lon="1.2937">
        <ele>405</ele>
        <time>2007-05-21T08:48:19Z</time>
      </trkpt>
      <trkpt lat="46.01861" lon="1.2934">
        <ele>406</ele>
        <time>2007-05-21T08:48:32Z</time>
      </trkpt>
      <trkpt lat="46.01839" lon="1.29311">
        <ele>411</ele>
        <time>2007-05-21T08:48:44Z</time>
      </trkpt>
      <trkpt lat="46.01817" lon="1.29294">
        <ele>412</ele>
        <time>2007-05-21T08:48:54Z</time>
      </trkpt>
      <trkpt lat="46.01791" lon="1.29294">
        <ele>411</ele>
        <time>2007-05-21T08:49:04Z</time>
      </trkpt>
      <trkpt lat="46.01774" lon="1.2931">
        <ele>411</ele>
        <time>2007-05-21T08:49:13Z</time>
      </trkpt>
      <trkpt lat="46.01761" lon="1.29346">
        <ele>411</ele>
        <time>2007-05-21T08:49:24Z</time>
      </trkpt>
      <trkpt lat="46.01737" lon="1.29359">
        <ele>412</ele>
        <time>2007-05-21T08:49:35Z</time>
      </trkpt>
      <trkpt lat="46.01712" lon="1.29365">
        <ele>413</ele>
        <time>2007-05-21T08:49:45Z</time>
      </trkpt>
      <trkpt lat="46.01688" lon="1.29379">
        <ele>413</ele>
        <time>2007-05-21T08:49:55Z</time>
      </trkpt>
      <trkpt lat="46.01671" lon="1.29406">
        <ele>414</ele>
        <time>2007-05-21T08:50:05Z</time>
      </trkpt>
      <trkpt lat="46.01652" lon="1.29441">
        <ele>413</ele>
        <time>2007-05-21T08:50:18Z</time>
      </trkpt>
      <trkpt lat="46.01616" lon="1.29506">
        <ele>411</ele>
        <time>2007-05-21T08:50:41Z</time>
      </trkpt>
      <trkpt lat="46.01581" lon="1.29605">
        <ele>408</ele>
        <time>2007-05-21T08:51:12Z</time>
      </trkpt>
      <trkpt lat="46.01549" lon="1.29683">
        <ele>410</ele>
        <time>2007-05-21T08:51:38Z</time>
      </trkpt>
      <trkpt lat="46.01519" lon="1.2973">
        <ele>411</ele>
        <time>2007-05-21T08:51:56Z</time>
      </trkpt>
      <trkpt lat="46.01503" lon="1.2977">
        <ele>414</ele>
        <time>2007-05-21T08:52:09Z</time>
      </trkpt>
      <trkpt lat="46.01482" lon="1.2983">
        <ele>418</ele>
        <time>2007-05-21T08:52:28Z</time>
      </trkpt>
      <trkpt lat="46.01487" lon="1.29853">
        <ele>422</ele>
        <time>2007-05-21T08:52:35Z</time>
      </trkpt>
      <trkpt lat="46.01492" lon="1.29877">
        <ele>423</ele>
        <time>2007-05-21T08:52:42Z</time>
      </trkpt>
      <trkpt lat="46.01489" lon="1.29902">
        <ele>424</ele>
        <time>2007-05-21T08:52:49Z</time>
      </trkpt>
      <trkpt lat="46.01487" lon="1.2993">
        <ele>427</ele>
        <time>2007-05-21T08:52:58Z</time>
      </trkpt>
      <trkpt lat="46.01487" lon="1.29959">
        <ele>428</ele>
        <time>2007-05-21T08:53:06Z</time>
      </trkpt>
      <trkpt lat="46.01482" lon="1.29989">
        <ele>428</ele>
        <time>2007-05-21T08:53:15Z</time>
      </trkpt>
      <trkpt lat="46.01476" lon="1.30014">
        <ele>431</ele>
        <time>2007-05-21T08:53:22Z</time>
      </trkpt>
      <trkpt lat="46.01468" lon="1.30031">
        <ele>432</ele>
        <time>2007-05-21T08:53:28Z</time>
      </trkpt>
      <trkpt lat="46.01458" lon="1.3006">
        <ele>433</ele>
        <time>2007-05-21T08:53:37Z</time>
      </trkpt>
      <trkpt lat="46.01448" lon="1.30084">
        <ele>437</ele>
        <time>2007-05-21T08:53:45Z</time>
      </trkpt>
      <trkpt lat="46.0144" lon="1.30109">
        <ele>437</ele>
        <time>2007-05-21T08:53:52Z</time>
      </trkpt>
      <trkpt lat="46.0143" lon="1.30129">
        <ele>439</ele>
        <time>2007-05-21T08:53:59Z</time>
      </trkpt>
      <trkpt lat="46.01426" lon="1.30155">
        <ele>440</ele>
        <time>2007-05-21T08:54:06Z</time>
      </trkpt>
      <trkpt lat="46.01414" lon="1.30177">
        <ele>442</ele>
        <time>2007-05-21T08:54:14Z</time>
      </trkpt>
      <trkpt lat="46.01401" lon="1.30198">
        <ele>443</ele>
        <time>2007-05-21T08:54:22Z</time>
      </trkpt>
      <trkpt lat="46.01389" lon="1.30224">
        <ele>443</ele>
        <time>2007-05-21T08:54:31Z</time>
      </trkpt>
      <trkpt lat="46.01376" lon="1.30257">
        <ele>444</ele>
        <time>2007-05-21T08:54:41Z</time>
      </trkpt>
      <trkpt lat="46.01357" lon="1.30288">
        <ele>443</ele>
        <time>2007-05-21T08:54:53Z</time>
      </trkpt>
      <trkpt lat="46.01355" lon="1.30359">
        <ele>441</ele>
        <time>2007-05-21T08:55:16Z</time>
      </trkpt>
      <trkpt lat="46.01353" lon="1.30466">
        <ele>436</ele>
        <time>2007-05-21T08:55:46Z</time>
      </trkpt>
      <trkpt lat="46.01296" lon="1.30493">
        <ele>430</ele>
        <time>2007-05-21T08:56:11Z</time>
      </trkpt>
      <trkpt lat="46.01245" lon="1.30486">
        <ele>426</ele>
        <time>2007-05-21T08:56:32Z</time>
      </trkpt>
      <trkpt lat="46.01198" lon="1.30539">
        <ele>423</ele>
        <time>2007-05-21T08:56:56Z</time>
      </trkpt>
      <trkpt lat="46.01133" lon="1.30587">
        <ele>420</ele>
        <time>2007-05-21T08:57:27Z</time>
      </trkpt>
      <trkpt lat="46.01096" lon="1.30639">
        <ele>421</ele>
        <time>2007-05-21T08:57:48Z</time>
      </trkpt>
      <trkpt lat="46.01065" lon="1.30669">
        <ele>426</ele>
        <time>2007-05-21T08:58:03Z</time>
      </trkpt>
      <trkpt lat="46.01027" lon="1.30687">
        <ele>426</ele>
        <time>2007-05-21T08:58:18Z</time>
      </trkpt>
      <trkpt lat="46.00995" lon="1.30711">
        <ele>425</ele>
        <time>2007-05-21T08:58:33Z</time>
      </trkpt>
      <trkpt lat="46.0097" lon="1.30729">
        <ele>426</ele>
        <time>2007-05-21T08:58:44Z</time>
      </trkpt>
      <trkpt lat="46.0094" lon="1.30765">
        <ele>430</ele>
        <time>2007-05-21T08:59:00Z</time>
      </trkpt>
      <trkpt lat="46.00913" lon="1.30804">
        <ele>429</ele>
        <time>2007-05-21T08:59:15Z</time>
      </trkpt>
      <trkpt lat="46.00879" lon="1.30828">
        <ele>429</ele>
        <time>2007-05-21T08:59:30Z</time>
      </trkpt>
      <trkpt lat="46.00847" lon="1.30856">
        <ele>429</ele>
        <time>2007-05-21T08:59:45Z</time>
      </trkpt>
      <trkpt lat="46.00791" lon="1.309">
        <ele>425</ele>
        <time>2007-05-21T09:00:11Z</time>
      </trkpt>
      <trkpt lat="46.00722" lon="1.30949">
        <ele>419</ele>
        <time>2007-05-21T09:00:42Z</time>
      </trkpt>
      <trkpt lat="46.00653" lon="1.30953">
        <ele>412</ele>
        <time>2007-05-21T09:01:09Z</time>
      </trkpt>
      <trkpt lat="46.00656" lon="1.3101">
        <ele>411</ele>
        <time>2007-05-21T09:01:26Z</time>
      </trkpt>
      <trkpt lat="46.0069" lon="1.31081">
        <ele>412</ele>
        <time>2007-05-21T09:01:51Z</time>
      </trkpt>
      <trkpt lat="46.00726" lon="1.31148">
        <ele>410</ele>
        <time>2007-05-21T09:02:14Z</time>
      </trkpt>
      <trkpt lat="46.00746" lon="1.31196">
        <ele>411</ele>
        <time>2007-05-21T09:02:30Z</time>
      </trkpt>
      <trkpt lat="46.00761" lon="1.31241">
        <ele>416</ele>
        <time>2007-05-21T09:02:44Z</time>
      </trkpt>
      <trkpt lat="46.00776" lon="1.3128">
        <ele>416</ele>
        <time>2007-05-21T09:02:57Z</time>
      </trkpt>
      <trkpt lat="46.00834" lon="1.31339">
        <ele>418</ele>
        <time>2007-05-21T09:03:26Z</time>
      </trkpt>
      <trkpt lat="46.00873" lon="1.31367">
        <ele>420</ele>
        <time>2007-05-21T09:03:44Z</time>
      </trkpt>
      <trkpt lat="46.00914" lon="1.314">
        <ele>421</ele>
        <time>2007-05-21T09:04:02Z</time>
      </trkpt>
      <trkpt lat="46.00934" lon="1.31446">
        <ele>424</ele>
        <time>2007-05-21T09:04:18Z</time>
      </trkpt>
      <trkpt lat="46.00949" lon="1.31482">
        <ele>424</ele>
        <time>2007-05-21T09:04:29Z</time>
      </trkpt>
      <trkpt lat="46.00945" lon="1.31508">
        <ele>422</ele>
        <time>2007-05-21T09:04:38Z</time>
      </trkpt>
      <trkpt lat="46.00928" lon="1.31529">
        <ele>422</ele>
        <time>2007-05-21T09:04:47Z</time>
      </trkpt>
      <trkpt lat="46.00924" lon="1.31535">
        <ele>422</ele>
        <time>2007-05-21T09:04:49Z</time>
      </trkpt>
      <trkpt lat="46.00917" lon="1.31548">
        <ele>422</ele>
        <time>2007-05-21T09:04:54Z</time>
      </trkpt>
      <trkpt lat="46.00903" lon="1.31566">
        <ele>421</ele>
        <time>2007-05-21T09:05:02Z</time>
      </trkpt>
      <trkpt lat="46.00877" lon="1.3158">
        <ele>421</ele>
        <time>2007-05-21T09:05:13Z</time>
      </trkpt>
      <trkpt lat="46.00848" lon="1.3159">
        <ele>420</ele>
        <time>2007-05-21T09:05:25Z</time>
      </trkpt>
      <trkpt lat="46.00807" lon="1.31614">
        <ele>416</ele>
        <time>2007-05-21T09:05:43Z</time>
      </trkpt>
      <trkpt lat="46.00739" lon="1.3165">
        <ele>414</ele>
        <time>2007-05-21T09:06:12Z</time>
      </trkpt>
      <trkpt lat="46.00699" lon="1.3163">
        <ele>415</ele>
        <time>2007-05-21T09:06:29Z</time>
      </trkpt>
      <trkpt lat="46.00678" lon="1.31636">
        <ele>415</ele>
        <time>2007-05-21T09:06:37Z</time>
      </trkpt>
      <trkpt lat="46.00658" lon="1.31646">
        <ele>419</ele>
        <time>2007-05-21T09:06:46Z</time>
      </trkpt>
      <trkpt lat="46.00642" lon="1.31664">
        <ele>419</ele>
        <time>2007-05-21T09:06:54Z</time>
      </trkpt>
      <trkpt lat="46.00639" lon="1.31694">
        <ele>419</ele>
        <time>2007-05-21T09:07:03Z</time>
      </trkpt>
      <trkpt lat="46.00648" lon="1.31713">
        <ele>419</ele>
        <time>2007-05-21T09:07:10Z</time>
      </trkpt>
      <trkpt lat="46.00656" lon="1.31736">
        <ele>418</ele>
        <time>2007-05-21T09:07:17Z</time>
      </trkpt>
      <trkpt lat="46.00653" lon="1.31763">
        <ele>417</ele>
        <time>2007-05-21T09:07:25Z</time>
      </trkpt>
      <trkpt lat="46.00642" lon="1.318">
        <ele>417</ele>
        <time>2007-05-21T09:07:36Z</time>
      </trkpt>
      <trkpt lat="46.00611" lon="1.31829">
        <ele>419</ele>
        <time>2007-05-21T09:07:52Z</time>
      </trkpt>
      <trkpt lat="46.00581" lon="1.31832">
        <ele>423</ele>
        <time>2007-05-21T09:08:05Z</time>
      </trkpt>
      <trkpt lat="46.0056" lon="1.31851">
        <ele>424</ele>
        <time>2007-05-21T09:08:18Z</time>
      </trkpt>
      <trkpt lat="46.00545" lon="1.31887">
        <ele>424</ele>
        <time>2007-05-21T09:08:30Z</time>
      </trkpt>
      <trkpt lat="46.0053" lon="1.31923">
        <ele>421</ele>
        <time>2007-05-21T09:08:42Z</time>
      </trkpt>
      <trkpt lat="46.00508" lon="1.31969">
        <ele>420</ele>
        <time>2007-05-21T09:08:58Z</time>
      </trkpt>
      <trkpt lat="46.0049" lon="1.31983">
        <ele>427</ele>
        <time>2007-05-21T09:09:06Z</time>
      </trkpt>
      <trkpt lat="46.00471" lon="1.32">
        <ele>428</ele>
        <time>2007-05-21T09:09:15Z</time>
      </trkpt>
      <trkpt lat="46.00469" lon="1.32042">
        <ele>429</ele>
        <time>2007-05-21T09:09:28Z</time>
      </trkpt>
      <trkpt lat="46.00475" lon="1.32103">
        <ele>427</ele>
        <time>2007-05-21T09:09:45Z</time>
      </trkpt>
      <trkpt lat="46.00459" lon="1.32133">
        <ele>428</ele>
        <time>2007-05-21T09:09:56Z</time>
      </trkpt>
      <trkpt lat="46.00437" lon="1.32152">
        <ele>429</ele>
        <time>2007-05-21T09:10:06Z</time>
      </trkpt>
      <trkpt lat="46.0042" lon="1.32169">
        <ele>430</ele>
        <time>2007-05-21T09:10:15Z</time>
      </trkpt>
      <trkpt lat="46.00403" lon="1.32174">
        <ele>434</ele>
        <time>2007-05-21T09:10:22Z</time>
      </trkpt>
      <trkpt lat="46.00407" lon="1.32149">
        <ele>437</ele>
        <time>2007-05-21T09:10:30Z</time>
      </trkpt>
      <trkpt lat="46.0042" lon="1.32129">
        <ele>431</ele>
        <time>2007-05-21T09:10:37Z</time>
      </trkpt>
      <trkpt lat="46.00433" lon="1.32108">
        <ele>432</ele>
        <time>2007-05-21T09:10:45Z</time>
      </trkpt>
      <trkpt lat="46.00439" lon="1.3208">
        <ele>433</ele>
        <time>2007-05-21T09:10:53Z</time>
      </trkpt>
      <trkpt lat="46.0043" lon="1.32057">
        <ele>433</ele>
        <time>2007-05-21T09:11:01Z</time>
      </trkpt>
      <trkpt lat="46.00416" lon="1.32044">
        <ele>443</ele>
        <time>2007-05-21T09:11:08Z</time>
      </trkpt>
      <trkpt lat="46.00385" lon="1.32033">
        <ele>445</ele>
        <time>2007-05-21T09:11:20Z</time>
      </trkpt>
      <trkpt lat="46.00371" lon="1.32028">
        <ele>446</ele>
        <time>2007-05-21T09:11:26Z</time>
      </trkpt>
      <trkpt lat="46.00358" lon="1.32023">
        <ele>447</ele>
        <time>2007-05-21T09:11:32Z</time>
      </trkpt>
      <trkpt lat="46.00345" lon="1.32014">
        <ele>449</ele>
        <time>2007-05-21T09:11:37Z</time>
      </trkpt>
      <trkpt lat="46.00338" lon="1.32004">
        <ele>451</ele>
        <time>2007-05-21T09:11:41Z</time>
      </trkpt>
      <trkpt lat="46.00326" lon="1.31989">
        <ele>457</ele>
        <time>2007-05-21T09:11:47Z</time>
      </trkpt>
      <trkpt lat="46.00317" lon="1.31973">
        <ele>460</ele>
        <time>2007-05-21T09:11:53Z</time>
      </trkpt>
      <trkpt lat="46.00309" lon="1.31958">
        <ele>462</ele>
        <time>2007-05-21T09:11:58Z</time>
      </trkpt>
      <trkpt lat="46.00303" lon="1.3194">
        <ele>463</ele>
        <time>2007-05-21T09:12:04Z</time>
      </trkpt>
      <trkpt lat="46.003" lon="1.31921">
        <ele>463</ele>
        <time>2007-05-21T09:12:10Z</time>
      </trkpt>
      <trkpt lat="46.00297" lon="1.31899">
        <ele>465</ele>
        <time>2007-05-21T09:12:17Z</time>
      </trkpt>
      <trkpt lat="46.00293" lon="1.31879">
        <ele>465</ele>
        <time>2007-05-21T09:12:23Z</time>
      </trkpt>
      <trkpt lat="46.00296" lon="1.31858">
        <ele>465</ele>
        <time>2007-05-21T09:12:29Z</time>
      </trkpt>
      <trkpt lat="46.00295" lon="1.31831">
        <ele>466</ele>
        <time>2007-05-21T09:12:37Z</time>
      </trkpt>
      <trkpt lat="46.00296" lon="1.318">
        <ele>466</ele>
        <time>2007-05-21T09:12:45Z</time>
      </trkpt>
      <trkpt lat="46.00296" lon="1.31768">
        <ele>466</ele>
        <time>2007-05-21T09:12:54Z</time>
      </trkpt>
      <trkpt lat="46.00306" lon="1.31728">
        <ele>464</ele>
        <time>2007-05-21T09:13:06Z</time>
      </trkpt>
      <trkpt lat="46.00292" lon="1.31666">
        <ele>459</ele>
        <time>2007-05-21T09:13:25Z</time>
      </trkpt>
      <trkpt lat="46.00272" lon="1.31617">
        <ele>457</ele>
        <time>2007-05-21T09:13:40Z</time>
      </trkpt>
      <trkpt lat="46.00248" lon="1.31508">
        <ele>448</ele>
        <time>2007-05-21T09:14:12Z</time>
      </trkpt>
      <trkpt lat="46.00247" lon="1.31417">
        <ele>441</ele>
        <time>2007-05-21T09:14:40Z</time>
      </trkpt>
      <trkpt lat="46.0016" lon="1.31323">
        <ele>426</ele>
        <time>2007-05-21T09:15:24Z</time>
      </trkpt>
      <trkpt lat="46.00076" lon="1.3139">
        <ele>425</ele>
        <time>2007-05-21T09:16:03Z</time>
      </trkpt>
      <trkpt lat="46.00055" lon="1.31427">
        <ele>428</ele>
        <time>2007-05-21T09:16:17Z</time>
      </trkpt>
      <trkpt lat="46.00043" lon="1.31476">
        <ele>428</ele>
        <time>2007-05-21T09:16:31Z</time>
      </trkpt>
      <trkpt lat="46.00024" lon="1.31527">
        <ele>432</ele>
        <time>2007-05-21T09:16:48Z</time>
      </trkpt>
      <trkpt lat="45.99999" lon="1.3157">
        <ele>431</ele>
        <time>2007-05-21T09:17:03Z</time>
      </trkpt>
      <trkpt lat="45.99969" lon="1.31614">
        <ele>432</ele>
        <time>2007-05-21T09:17:20Z</time>
      </trkpt>
      <trkpt lat="45.99924" lon="1.31667">
        <ele>432</ele>
        <time>2007-05-21T09:17:44Z</time>
      </trkpt>
      <trkpt lat="45.99834" lon="1.31704">
        <ele>426</ele>
        <time>2007-05-21T09:18:21Z</time>
      </trkpt>
      <trkpt lat="45.99756" lon="1.31731">
        <ele>425</ele>
        <time>2007-05-21T09:18:54Z</time>
      </trkpt>
      <trkpt lat="45.99723" lon="1.31767">
        <ele>427</ele>
        <time>2007-05-21T09:19:11Z</time>
      </trkpt>
      <trkpt lat="45.99694" lon="1.31826">
        <ele>427</ele>
        <time>2007-05-21T09:19:31Z</time>
      </trkpt>
      <trkpt lat="45.99672" lon="1.31895">
        <ele>429</ele>
        <time>2007-05-21T09:19:52Z</time>
      </trkpt>
      <trkpt lat="45.99644" lon="1.31973">
        <ele>428</ele>
        <time>2007-05-21T09:20:16Z</time>
      </trkpt>
      <trkpt lat="45.99615" lon="1.32025">
        <ele>431</ele>
        <time>2007-05-21T09:20:35Z</time>
      </trkpt>
      <trkpt lat="45.99547" lon="1.32056">
        <ele>428</ele>
        <time>2007-05-21T09:21:04Z</time>
      </trkpt>
      <trkpt lat="45.9949" lon="1.32091">
        <ele>430</ele>
        <time>2007-05-21T09:21:28Z</time>
      </trkpt>
      <trkpt lat="45.9943" lon="1.32119">
        <ele>431</ele>
        <time>2007-05-21T09:21:54Z</time>
      </trkpt>
      <trkpt lat="45.99368" lon="1.32144">
        <ele>425</ele>
        <time>2007-05-21T09:22:20Z</time>
      </trkpt>
      <trkpt lat="45.99279" lon="1.32181">
        <ele>419</ele>
        <time>2007-05-21T09:22:57Z</time>
      </trkpt>
      <trkpt lat="45.99179" lon="1.32219">
        <ele>418</ele>
        <time>2007-05-21T09:23:38Z</time>
      </trkpt>
      <trkpt lat="45.99108" lon="1.32246">
        <ele>418</ele>
        <time>2007-05-21T09:24:08Z</time>
      </trkpt>
      <trkpt lat="45.98982" lon="1.32284">
        <ele>421</ele>
        <time>2007-05-21T09:24:59Z</time>
      </trkpt>
      <trkpt lat="45.98931" lon="1.32275">
        <ele>422</ele>
        <time>2007-05-21T09:25:22Z</time>
      </trkpt>
      <trkpt lat="45.989" lon="1.32239">
        <ele>430</ele>
        <time>2007-05-21T09:25:38Z</time>
      </trkpt>
      <trkpt lat="45.98881" lon="1.32245">
        <ele>433</ele>
        <time>2007-05-21T09:25:46Z</time>
      </trkpt>
      <trkpt lat="45.98847" lon="1.32276">
        <ele>428</ele>
        <time>2007-05-21T09:26:02Z</time>
      </trkpt>
      <trkpt lat="45.98812" lon="1.32313">
        <ele>429</ele>
        <time>2007-05-21T09:26:20Z</time>
      </trkpt>
      <trkpt lat="45.98779" lon="1.32344">
        <ele>424</ele>
        <time>2007-05-21T09:26:36Z</time>
      </trkpt>
      <trkpt lat="45.98744" lon="1.32359">
        <ele>424</ele>
        <time>2007-05-21T09:26:50Z</time>
      </trkpt>
      <trkpt lat="45.98713" lon="1.3234">
        <ele>423</ele>
        <time>2007-05-21T09:27:04Z</time>
      </trkpt>
      <trkpt lat="45.9869" lon="1.32303">
        <ele>428</ele>
        <time>2007-05-21T09:27:18Z</time>
      </trkpt>
      <trkpt lat="45.98663" lon="1.32262">
        <ele>428</ele>
        <time>2007-05-21T09:27:34Z</time>
      </trkpt>
      <trkpt lat="45.98648" lon="1.32278">
        <ele>427</ele>
        <time>2007-05-21T09:27:46Z</time>
      </trkpt>
      <trkpt lat="45.98633" lon="1.32324">
        <ele>426</ele>
        <time>2007-05-21T09:28:01Z</time>
      </trkpt>
      <trkpt lat="45.98615" lon="1.3239">
        <ele>423</ele>
        <time>2007-05-21T09:28:24Z</time>
      </trkpt>
      <trkpt lat="45.98625" lon="1.32447">
        <ele>421</ele>
        <time>2007-05-21T09:28:40Z</time>
      </trkpt>
      <trkpt lat="45.98605" lon="1.32483">
        <ele>422</ele>
        <time>2007-05-21T09:28:54Z</time>
      </trkpt>
      <trkpt lat="45.98571" lon="1.32493">
        <ele>426</ele>
        <time>2007-05-21T09:29:09Z</time>
      </trkpt>
      <trkpt lat="45.98533" lon="1.32503">
        <ele>427</ele>
        <time>2007-05-21T09:29:24Z</time>
      </trkpt>
      <trkpt lat="45.98499" lon="1.32514">
        <ele>431</ele>
        <time>2007-05-21T09:29:38Z</time>
      </trkpt>
      <trkpt lat="45.98466" lon="1.32525">
        <ele>429</ele>
        <time>2007-05-21T09:29:52Z</time>
      </trkpt>
      <trkpt lat="45.98403" lon="1.3252">
        <ele>428</ele>
        <time>2007-05-21T09:30:18Z</time>
      </trkpt>
      <trkpt lat="45.98347" lon="1.32495">
        <ele>428</ele>
        <time>2007-05-21T09:30:41Z</time>
      </trkpt>
      <trkpt lat="45.98293" lon="1.32472">
        <ele>427</ele>
        <time>2007-05-21T09:31:04Z</time>
      </trkpt>
      <trkpt lat="45.98246" lon="1.32456">
        <ele>426</ele>
        <time>2007-05-21T09:31:23Z</time>
      </trkpt>
      <trkpt lat="45.98256" lon="1.32502">
        <ele>426</ele>
        <time>2007-05-21T09:31:38Z</time>
      </trkpt>
      <trkpt lat="45.98289" lon="1.32548">
        <ele>425</ele>
        <time>2007-05-21T09:31:57Z</time>
      </trkpt>
      <trkpt lat="45.98326" lon="1.32602">
        <ele>424</ele>
        <time>2007-05-21T09:32:18Z</time>
      </trkpt>
      <trkpt lat="45.98355" lon="1.32659">
        <ele>423</ele>
        <time>2007-05-21T09:32:39Z</time>
      </trkpt>
      <trkpt lat="45.9829" lon="1.32649">
        <ele>423</ele>
        <time>2007-05-21T09:33:06Z</time>
      </trkpt>
      <trkpt lat="45.98216" lon="1.32653">
        <ele>422</ele>
        <time>2007-05-21T09:33:36Z</time>
      </trkpt>
      <trkpt lat="45.98141" lon="1.32653">
        <ele>421</ele>
        <time>2007-05-21T09:34:06Z</time>
      </trkpt>
      <trkpt lat="45.98066" lon="1.32662">
        <ele>422</ele>
        <time>2007-05-21T09:34:36Z</time>
      </trkpt>
      <trkpt lat="45.98001" lon="1.32647">
        <ele>423</ele>
        <time>2007-05-21T09:35:02Z</time>
      </trkpt>
      <trkpt lat="45.97957" lon="1.32634">
        <ele>423</ele>
        <time>2007-05-21T09:35:20Z</time>
      </trkpt>
      <trkpt lat="45.97885" lon="1.32619">
        <ele>424</ele>
        <time>2007-05-21T09:35:50Z</time>
      </trkpt>
      <trkpt lat="45.97832" lon="1.32605">
        <ele>427</ele>
        <time>2007-05-21T09:36:11Z</time>
      </trkpt>
      <trkpt lat="45.97781" lon="1.32588">
        <ele>428</ele>
        <time>2007-05-21T09:36:32Z</time>
      </trkpt>
      <trkpt lat="45.97739" lon="1.32575">
        <ele>427</ele>
        <time>2007-05-21T09:36:49Z</time>
      </trkpt>
      <trkpt lat="45.97699" lon="1.3258">
        <ele>427</ele>
        <time>2007-05-21T09:37:05Z</time>
      </trkpt>
      <trkpt lat="45.97659" lon="1.3259">
        <ele>431</ele>
        <time>2007-05-21T09:37:21Z</time>
      </trkpt>
      <trkpt lat="45.9762" lon="1.32607">
        <ele>433</ele>
        <time>2007-05-21T09:37:38Z</time>
      </trkpt>
      <trkpt lat="45.97579" lon="1.32569">
        <ele>431</ele>
        <time>2007-05-21T09:37:58Z</time>
      </trkpt>
      <trkpt lat="45.97543" lon="1.32517">
        <ele>432</ele>
        <time>2007-05-21T09:38:18Z</time>
      </trkpt>
      <trkpt lat="45.97481" lon="1.32412">
        <ele>434</ele>
        <time>2007-05-21T09:38:56Z</time>
      </trkpt>
      <trkpt lat="45.97458" lon="1.32364">
        <ele>438</ele>
        <time>2007-05-21T09:39:13Z</time>
      </trkpt>
      <trkpt lat="45.97441" lon="1.32315">
        <ele>436</ele>
        <time>2007-05-21T09:39:28Z</time>
      </trkpt>
      <trkpt lat="45.97423" lon="1.32258">
        <ele>433</ele>
        <time>2007-05-21T09:39:45Z</time>
      </trkpt>
      <trkpt lat="45.97388" lon="1.32211">
        <ele>432</ele>
        <time>2007-05-21T09:40:05Z</time>
      </trkpt>
      <trkpt lat="45.97336" lon="1.32188">
        <ele>431</ele>
        <time>2007-05-21T09:40:27Z</time>
      </trkpt>
      <trkpt lat="45.97286" lon="1.32169">
        <ele>434</ele>
        <time>2007-05-21T09:40:47Z</time>
      </trkpt>
      <trkpt lat="45.97233" lon="1.32152">
        <ele>433</ele>
        <time>2007-05-21T09:41:09Z</time>
      </trkpt>
      <trkpt lat="45.97196" lon="1.32126">
        <ele>433</ele>
        <time>2007-05-21T09:41:27Z</time>
      </trkpt>
      <trkpt lat="45.9718" lon="1.32064">
        <ele>431</ele>
        <time>2007-05-21T09:41:48Z</time>
      </trkpt>
      <trkpt lat="45.97148" lon="1.32069">
        <ele>432</ele>
        <time>2007-05-21T09:42:01Z</time>
      </trkpt>
      <trkpt lat="45.97111" lon="1.32068">
        <ele>433</ele>
        <time>2007-05-21T09:42:16Z</time>
      </trkpt>
      <trkpt lat="45.97098" lon="1.32026">
        <ele>432</ele>
        <time>2007-05-21T09:42:32Z</time>
      </trkpt>
      <trkpt lat="45.97114" lon="1.31978">
        <ele>432</ele>
        <time>2007-05-21T09:42:46Z</time>
      </trkpt>
      <trkpt lat="45.97099" lon="1.31951">
        <ele>432</ele>
        <time>2007-05-21T09:42:58Z</time>
      </trkpt>
      <trkpt lat="45.97064" lon="1.31948">
        <ele>434</ele>
        <time>2007-05-21T09:43:12Z</time>
      </trkpt>
      <trkpt lat="45.97026" lon="1.31946">
        <ele>435</ele>
        <time>2007-05-21T09:43:27Z</time>
      </trkpt>
      <trkpt lat="45.96989" lon="1.31944">
        <ele>439</ele>
        <time>2007-05-21T09:43:42Z</time>
      </trkpt>
      <trkpt lat="45.96948" lon="1.31942">
        <ele>439</ele>
        <time>2007-05-21T09:43:58Z</time>
      </trkpt>
      <trkpt lat="45.96903" lon="1.31939">
        <ele>442</ele>
        <time>2007-05-21T09:44:16Z</time>
      </trkpt>
      <trkpt lat="45.96861" lon="1.31935">
        <ele>442</ele>
        <time>2007-05-21T09:44:33Z</time>
      </trkpt>
      <trkpt lat="45.96814" lon="1.31933">
        <ele>443</ele>
        <time>2007-05-21T09:44:52Z</time>
      </trkpt>
      <trkpt lat="45.96762" lon="1.3193">
        <ele>443</ele>
        <time>2007-05-21T09:45:13Z</time>
      </trkpt>
      <trkpt lat="45.96714" lon="1.31925">
        <ele>445</ele>
        <time>2007-05-21T09:45:32Z</time>
      </trkpt>
      <trkpt lat="45.96664" lon="1.31916">
        <ele>442</ele>
        <time>2007-05-21T09:45:52Z</time>
      </trkpt>
      <trkpt lat="45.96618" lon="1.31902">
        <ele>443</ele>
        <time>2007-05-21T09:46:11Z</time>
      </trkpt>
      <trkpt lat="45.9657" lon="1.31886">
        <ele>444</ele>
        <time>2007-05-21T09:46:30Z</time>
      </trkpt>
      <trkpt lat="45.96518" lon="1.31871">
        <ele>443</ele>
        <time>2007-05-21T09:46:51Z</time>
      </trkpt>
      <trkpt lat="45.96468" lon="1.31852">
        <ele>443</ele>
        <time>2007-05-21T09:47:12Z</time>
      </trkpt>
      <trkpt lat="45.96419" lon="1.31821">
        <ele>443</ele>
        <time>2007-05-21T09:47:34Z</time>
      </trkpt>
      <trkpt lat="45.96373" lon="1.31778">
        <ele>446</ele>
        <time>2007-05-21T09:47:55Z</time>
      </trkpt>
      <trkpt lat="45.96336" lon="1.31738">
        <ele>450</ele>
        <time>2007-05-21T09:48:14Z</time>
      </trkpt>
      <trkpt lat="45.96272" lon="1.31701">
        <ele>450</ele>
        <time>2007-05-21T09:48:42Z</time>
      </trkpt>
      <trkpt lat="45.96195" lon="1.31725">
        <ele>445</ele>
        <time>2007-05-21T09:49:14Z</time>
      </trkpt>
      <trkpt lat="45.96131" lon="1.31828">
        <ele>440</ele>
        <time>2007-05-21T09:49:52Z</time>
      </trkpt>
      <trkpt lat="45.96081" lon="1.31929">
        <ele>439</ele>
        <time>2007-05-21T09:50:27Z</time>
      </trkpt>
      <trkpt lat="45.96021" lon="1.31995">
        <ele>439</ele>
        <time>2007-05-21T09:50:57Z</time>
      </trkpt>
      <trkpt lat="45.95937" lon="1.32016">
        <ele>435</ele>
        <time>2007-05-21T09:51:32Z</time>
      </trkpt>
      <trkpt lat="45.95848" lon="1.31978">
        <ele>434</ele>
        <time>2007-05-21T09:52:09Z</time>
      </trkpt>
      <trkpt lat="45.95768" lon="1.31949">
        <ele>432</ele>
        <time>2007-05-21T09:52:42Z</time>
      </trkpt>
      <trkpt lat="45.95723" lon="1.31989">
        <ele>427</ele>
        <time>2007-05-21T09:53:07Z</time>
      </trkpt>
      <trkpt lat="45.95642" lon="1.31965">
        <ele>423</ele>
        <time>2007-05-21T09:53:41Z</time>
      </trkpt>
      <trkpt lat="45.95557" lon="1.31959">
        <ele>422</ele>
        <time>2007-05-21T09:54:15Z</time>
      </trkpt>
      <trkpt lat="45.95488" lon="1.31902">
        <ele>428</ele>
        <time>2007-05-21T09:54:47Z</time>
      </trkpt>
      <trkpt lat="45.95466" lon="1.31906">
        <ele>429</ele>
        <time>2007-05-21T09:54:57Z</time>
      </trkpt>
      <trkpt lat="45.9545" lon="1.31919">
        <ele>428</ele>
        <time>2007-05-21T09:55:04Z</time>
      </trkpt>
      <trkpt lat="45.95435" lon="1.31925">
        <ele>429</ele>
        <time>2007-05-21T09:55:11Z</time>
      </trkpt>
      <trkpt lat="45.95421" lon="1.31937">
        <ele>429</ele>
        <time>2007-05-21T09:55:17Z</time>
      </trkpt>
      <trkpt lat="45.95404" lon="1.31955">
        <ele>433</ele>
        <time>2007-05-21T09:55:25Z</time>
      </trkpt>
      <trkpt lat="45.9539" lon="1.31975">
        <ele>432</ele>
        <time>2007-05-21T09:55:33Z</time>
      </trkpt>
      <trkpt lat="45.95377" lon="1.31996">
        <ele>432</ele>
        <time>2007-05-21T09:55:41Z</time>
      </trkpt>
      <trkpt lat="45.95362" lon="1.3199">
        <ele>433</ele>
        <time>2007-05-21T09:55:48Z</time>
      </trkpt>
      <trkpt lat="45.95332" lon="1.31981">
        <ele>435</ele>
        <time>2007-05-21T09:56:00Z</time>
      </trkpt>
      <trkpt lat="45.95295" lon="1.31935">
        <ele>439</ele>
        <time>2007-05-21T09:56:19Z</time>
      </trkpt>
      <trkpt lat="45.95263" lon="1.31916">
        <ele>445</ele>
        <time>2007-05-21T09:56:33Z</time>
      </trkpt>
      <trkpt lat="45.95242" lon="1.31919">
        <ele>443</ele>
        <time>2007-05-21T09:56:42Z</time>
      </trkpt>
      <trkpt lat="45.95223" lon="1.31929">
        <ele>444</ele>
        <time>2007-05-21T09:56:50Z</time>
      </trkpt>
      <trkpt lat="45.95207" lon="1.31939">
        <ele>445</ele>
        <time>2007-05-21T09:56:57Z</time>
      </trkpt>
      <trkpt lat="45.95194" lon="1.31953">
        <ele>445</ele>
        <time>2007-05-21T09:57:03Z</time>
      </trkpt>
      <trkpt lat="45.95178" lon="1.31968">
        <ele>445</ele>
        <time>2007-05-21T09:57:11Z</time>
      </trkpt>
      <trkpt lat="45.95163" lon="1.31985">
        <ele>452</ele>
        <time>2007-05-21T09:57:19Z</time>
      </trkpt>
      <trkpt lat="45.95146" lon="1.32003">
        <ele>449</ele>
        <time>2007-05-21T09:57:27Z</time>
      </trkpt>
      <trkpt lat="45.95131" lon="1.32021">
        <ele>450</ele>
        <time>2007-05-21T09:57:35Z</time>
      </trkpt>
      <trkpt lat="45.95117" lon="1.3204">
        <ele>450</ele>
        <time>2007-05-21T09:57:42Z</time>
      </trkpt>
      <trkpt lat="45.951" lon="1.32057">
        <ele>450</ele>
        <time>2007-05-21T09:57:51Z</time>
      </trkpt>
      <trkpt lat="45.95081" lon="1.32066">
        <ele>456</ele>
        <time>2007-05-21T09:57:59Z</time>
      </trkpt>
      <trkpt lat="45.95062" lon="1.32078">
        <ele>456</ele>
        <time>2007-05-21T09:58:07Z</time>
      </trkpt>
      <trkpt lat="45.95041" lon="1.32093">
        <ele>452</ele>
        <time>2007-05-21T09:58:16Z</time>
      </trkpt>
      <trkpt lat="45.9502" lon="1.32107">
        <ele>454</ele>
        <time>2007-05-21T09:58:26Z</time>
      </trkpt>
      <trkpt lat="45.94999" lon="1.32116">
        <ele>458</ele>
        <time>2007-05-21T09:58:34Z</time>
      </trkpt>
      <trkpt lat="45.9498" lon="1.32121">
        <ele>458</ele>
        <time>2007-05-21T09:58:42Z</time>
      </trkpt>
      <trkpt lat="45.94961" lon="1.32124">
        <ele>458</ele>
        <time>2007-05-21T09:58:50Z</time>
      </trkpt>
      <trkpt lat="45.94943" lon="1.32119">
        <ele>459</ele>
        <time>2007-05-21T09:58:57Z</time>
      </trkpt>
      <trkpt lat="45.9491" lon="1.32112">
        <ele>458</ele>
        <time>2007-05-21T09:59:10Z</time>
      </trkpt>
      <trkpt lat="45.94867" lon="1.32104">
        <ele>457</ele>
        <time>2007-05-21T09:59:28Z</time>
      </trkpt>
      <trkpt lat="45.94813" lon="1.3206">
        <ele>450</ele>
        <time>2007-05-21T09:59:54Z</time>
      </trkpt>
      <trkpt lat="45.94727" lon="1.32061">
        <ele>442</ele>
        <time>2007-05-21T10:00:28Z</time>
      </trkpt>
      <trkpt lat="45.94653" lon="1.32012">
        <ele>437</ele>
        <time>2007-05-21T10:01:02Z</time>
      </trkpt>
      <trkpt lat="45.94601" lon="1.31891">
        <ele>433</ele>
        <time>2007-05-21T10:01:44Z</time>
      </trkpt>
      <trkpt lat="45.9459" lon="1.31736">
        <ele>434</ele>
        <time>2007-05-21T10:02:30Z</time>
      </trkpt>
      <trkpt lat="45.94563" lon="1.31683">
        <ele>429</ele>
        <time>2007-05-21T10:02:48Z</time>
      </trkpt>
      <trkpt lat="45.94541" lon="1.31612">
        <ele>427</ele>
        <time>2007-05-21T10:03:10Z</time>
      </trkpt>
      <trkpt lat="45.94475" lon="1.31578">
        <ele>420</ele>
        <time>2007-05-21T10:03:40Z</time>
      </trkpt>
      <trkpt lat="45.94394" lon="1.31575">
        <ele>420</ele>
        <time>2007-05-21T10:04:14Z</time>
      </trkpt>
      <trkpt lat="45.94336" lon="1.3165">
        <ele>419</ele>
        <time>2007-05-21T10:04:45Z</time>
      </trkpt>
      <trkpt lat="45.94295" lon="1.31761">
        <ele>409</ele>
        <time>2007-05-21T10:05:21Z</time>
      </trkpt>
      <trkpt lat="45.94157" lon="1.3173">
        <ele>411</ele>
        <time>2007-05-21T10:06:17Z</time>
      </trkpt>
      <trkpt lat="45.94082" lon="1.31735">
        <ele>407</ele>
        <time>2007-05-21T10:06:48Z</time>
      </trkpt>
      <trkpt lat="45.9403" lon="1.31716">
        <ele>406</ele>
        <time>2007-05-21T10:07:11Z</time>
      </trkpt>
      <trkpt lat="45.93973" lon="1.31715">
        <ele>401</ele>
        <time>2007-05-21T10:07:34Z</time>
      </trkpt>
      <trkpt lat="45.93895" lon="1.31717">
        <ele>394</ele>
        <time>2007-05-21T10:08:05Z</time>
      </trkpt>
      <trkpt lat="45.9381" lon="1.3173">
        <ele>389</ele>
        <time>2007-05-21T10:08:39Z</time>
      </trkpt>
      <trkpt lat="45.93758" lon="1.31724">
        <ele>389</ele>
        <time>2007-05-21T10:09:00Z</time>
      </trkpt>
      <trkpt lat="45.93709" lon="1.31714">
        <ele>388</ele>
        <time>2007-05-21T10:09:21Z</time>
      </trkpt>
      <trkpt lat="45.93627" lon="1.31714">
        <ele>382</ele>
        <time>2007-05-21T10:09:53Z</time>
      </trkpt>
      <trkpt lat="45.93543" lon="1.31756">
        <ele>375</ele>
        <time>2007-05-21T10:10:29Z</time>
      </trkpt>
      <trkpt lat="45.93512" lon="1.31739">
        <ele>372</ele>
        <time>2007-05-21T10:10:52Z</time>
      </trkpt>
      <trkpt lat="45.93518" lon="1.31668">
        <ele>372</ele>
        <time>2007-05-21T10:11:12Z</time>
      </trkpt>
      <trkpt lat="45.93486" lon="1.31652">
        <ele>370</ele>
        <time>2007-05-21T10:11:29Z</time>
      </trkpt>
      <trkpt lat="45.93472" lon="1.31653">
        <ele>370</ele>
        <time>2007-05-21T10:11:34Z</time>
      </trkpt>
      <trkpt lat="45.93471" lon="1.31653">
        <ele>370</ele>
        <time>2007-05-21T10:11:35Z</time>
      </trkpt>
      <trkpt lat="45.9347" lon="1.31653">
        <ele>370</ele>
        <time>2007-05-21T10:11:35Z</time>
      </trkpt>
      <trkpt lat="45.93469" lon="1.31654">
        <ele>370</ele>
        <time>2007-05-21T10:11:36Z</time>
      </trkpt>
      <trkpt lat="45.93469" lon="1.31654">
        <ele>370</ele>
        <time>2007-05-21T10:11:36Z</time>
      </trkpt>
      <trkpt lat="45.93469" lon="1.31654">
        <ele>370</ele>
        <time>2007-05-21T10:11:36Z</time>
      </trkpt>
      <trkpt lat="45.93469" lon="1.31656">
        <ele>370</ele>
        <time>2007-05-21T10:11:36Z</time>
      </trkpt>
      <trkpt lat="45.93468" lon="1.31659">
        <ele>370</ele>
        <time>2007-05-21T10:11:37Z</time>
      </trkpt>
      <trkpt lat="45.93468" lon="1.3166">
        <ele>370</ele>
        <time>2007-05-21T10:11:38Z</time>
      </trkpt>
      <trkpt lat="45.93468" lon="1.31659">
        <ele>370</ele>
        <time>2007-05-21T10:11:38Z</time>
      </trkpt>
      <trkpt lat="45.93464" lon="1.31662">
        <ele>370</ele>
        <time>2007-05-21T10:11:41Z</time>
      </trkpt>
      <trkpt lat="45.9341" lon="1.31622">
        <ele>367</ele>
        <time>2007-05-21T10:12:05Z</time>
      </trkpt>
      <trkpt lat="45.93351" lon="1.3163">
        <ele>366</ele>
        <time>2007-05-21T10:12:30Z</time>
      </trkpt>
      <trkpt lat="45.93301" lon="1.31624">
        <ele>364</ele>
        <time>2007-05-21T10:12:49Z</time>
      </trkpt>
      <trkpt lat="45.9327" lon="1.31585">
        <ele>364</ele>
        <time>2007-05-21T10:13:08Z</time>
      </trkpt>
      <trkpt lat="45.93254" lon="1.31501">
        <ele>366</ele>
        <time>2007-05-21T10:13:32Z</time>
      </trkpt>
      <trkpt lat="45.9324" lon="1.3144">
        <ele>370</ele>
        <time>2007-05-21T10:13:50Z</time>
      </trkpt>
      <trkpt lat="45.93219" lon="1.3141">
        <ele>373</ele>
        <time>2007-05-21T10:14:02Z</time>
      </trkpt>
      <trkpt lat="45.93215" lon="1.31378">
        <ele>374</ele>
        <time>2007-05-21T10:14:12Z</time>
      </trkpt>
      <trkpt lat="45.93221" lon="1.31343">
        <ele>375</ele>
        <time>2007-05-21T10:14:22Z</time>
      </trkpt>
      <trkpt lat="45.93228" lon="1.31305">
        <ele>378</ele>
        <time>2007-05-21T10:14:33Z</time>
      </trkpt>
      <trkpt lat="45.93228" lon="1.31264">
        <ele>379</ele>
        <time>2007-05-21T10:14:45Z</time>
      </trkpt>
      <trkpt lat="45.93232" lon="1.3122">
        <ele>378</ele>
        <time>2007-05-21T10:14:57Z</time>
      </trkpt>
      <trkpt lat="45.93235" lon="1.31179">
        <ele>378</ele>
        <time>2007-05-21T10:15:08Z</time>
      </trkpt>
      <trkpt lat="45.93238" lon="1.31136">
        <ele>378</ele>
        <time>2007-05-21T10:15:20Z</time>
      </trkpt>
      <trkpt lat="45.93244" lon="1.31093">
        <ele>380</ele>
        <time>2007-05-21T10:15:32Z</time>
      </trkpt>
      <trkpt lat="45.93224" lon="1.31055">
        <ele>379</ele>
        <time>2007-05-21T10:15:47Z</time>
      </trkpt>
      <trkpt lat="45.93179" lon="1.3103">
        <ele>378</ele>
        <time>2007-05-21T10:16:06Z</time>
      </trkpt>
      <trkpt lat="45.9315" lon="1.30977">
        <ele>379</ele>
        <time>2007-05-21T10:16:25Z</time>
      </trkpt>
      <trkpt lat="45.93119" lon="1.30949">
        <ele>380</ele>
        <time>2007-05-21T10:16:42Z</time>
      </trkpt>
      <trkpt lat="45.9301" lon="1.30984">
        <ele>377</ele>
        <time>2007-05-21T10:17:27Z</time>
      </trkpt>
      <trkpt lat="45.92933" lon="1.3098">
        <ele>374</ele>
        <time>2007-05-21T10:17:58Z</time>
      </trkpt>
      <trkpt lat="45.92879" lon="1.30947">
        <ele>373</ele>
        <time>2007-05-21T10:18:22Z</time>
      </trkpt>
      <trkpt lat="45.92817" lon="1.30936">
        <ele>373</ele>
        <time>2007-05-21T10:18:48Z</time>
      </trkpt>
      <trkpt lat="45.92766" lon="1.3097">
        <ele>372</ele>
        <time>2007-05-21T10:19:11Z</time>
      </trkpt>
      <trkpt lat="45.927" lon="1.31034">
        <ele>364</ele>
        <time>2007-05-21T10:19:43Z</time>
        <extensions>
          <visugpx:TrkExtension xmlns:visugpx="https://www.visugpx.com/editgpx/">
            <visugpx:node>1</visugpx:node>
            </visugpx:TrkExtension>
        </extensions>
      </trkpt>
      <trkpt lat="45.92693" lon="1.31042">
        <ele>363.4</ele>
      </trkpt>
      <trkpt lat="45.9261" lon="1.31151">
        <ele>356</ele>
      </trkpt>
      <trkpt lat="45.92591" lon="1.31174">
        <ele>355.2</ele>
      </trkpt>
      <trkpt lat="45.92497" lon="1.31297">
        <ele>356.9</ele>
      </trkpt>
      <trkpt lat="45.92449" lon="1.31358">
        <ele>361.7</ele>
      </trkpt>
      <trkpt lat="45.92298" lon="1.31459">
        <ele>360.1</ele>
        <extensions>
          <visugpx:TrkExtension xmlns:visugpx="https://www.visugpx.com/editgpx/">
            <visugpx:node>2</visugpx:node>
            </visugpx:TrkExtension>
        </extensions>
      </trkpt>
      <trkpt lat="45.92297" lon="1.31459">
        <ele>360.1</ele>
      </trkpt>
      <trkpt lat="45.9229" lon="1.31588">
        <ele>359.5</ele>
      </trkpt>
      <trkpt lat="45.92289" lon="1.31591">
        <ele>359.5</ele>
      </trkpt>
      <trkpt lat="45.92253" lon="1.31592">
        <ele>360.6</ele>
      </trkpt>
      <trkpt lat="45.92232" lon="1.31595">
        <ele>359.9</ele>
      </trkpt>
      <trkpt lat="45.92227" lon="1.31529">
        <ele>361</ele>
      </trkpt>
      <trkpt lat="45.92214" lon="1.31433">
        <ele>359.4</ele>
      </trkpt>
      <trkpt lat="45.92207" lon="1.31395">
        <ele>358.6</ele>
      </trkpt>
      <trkpt lat="45.92201" lon="1.31369">
        <ele>359</ele>
      </trkpt>
      <trkpt lat="45.92193" lon="1.31347">
        <ele>360</ele>
      </trkpt>
      <trkpt lat="45.92184" lon="1.31326">
        <ele>361</ele>
      </trkpt>
      <trkpt lat="45.92178" lon="1.31319">
        <ele>361.2</ele>
        <extensions>
          <visugpx:TrkExtension xmlns:visugpx="https://www.visugpx.com/editgpx/">
            <visugpx:node>3</visugpx:node>
            </visugpx:TrkExtension>
        </extensions>
      </trkpt>
      <trkpt lat="45.9217" lon="1.31306">
        <ele>362</ele>
      </trkpt>
      <trkpt lat="45.92157" lon="1.31287">
        <ele>362.8</ele>
      </trkpt>
      <trkpt lat="45.92136" lon="1.31271">
        <ele>362</ele>
      </trkpt>
      <trkpt lat="45.92121" lon="1.31248">
        <ele>361.8</ele>
      </trkpt>
      <trkpt lat="45.92106" lon="1.31234">
        <ele>361.5</ele>
      </trkpt>
      <trkpt lat="45.9209" lon="1.31222">
        <ele>362</ele>
      </trkpt>
      <trkpt lat="45.92068" lon="1.31213">
        <ele>362</ele>
      </trkpt>
      <trkpt lat="45.92052" lon="1.31212">
        <ele>361.7</ele>
      </trkpt>
      <trkpt lat="45.92023" lon="1.31221">
        <ele>361.4</ele>
      </trkpt>
      <trkpt lat="45.9198" lon="1.31238">
        <ele>364.3</ele>
      </trkpt>
      <trkpt lat="45.91971" lon="1.31241">
        <ele>365.1</ele>
      </trkpt>
      <trkpt lat="45.91943" lon="1.31257">
        <ele>366.8</ele>
      </trkpt>
      <trkpt lat="45.91902" lon="1.31287">
        <ele>364.7</ele>
      </trkpt>
      <trkpt lat="45.91885" lon="1.31296">
        <ele>363.7</ele>
      </trkpt>
      <trkpt lat="45.91838" lon="1.31328">
        <ele>361.4</ele>
      </trkpt>
      <trkpt lat="45.91778" lon="1.31376">
        <ele>358.5</ele>
      </trkpt>
      <trkpt lat="45.91764" lon="1.31385">
        <ele>357.6</ele>
        <extensions>
          <visugpx:TrkExtension xmlns:visugpx="https://www.visugpx.com/editgpx/">
            <visugpx:node>4</visugpx:node>
            </visugpx:TrkExtension>
        </extensions>
      </trkpt>
      <trkpt lat="45.91707" lon="1.31421">
        <ele>354.8</ele>
      </trkpt>
      <trkpt lat="45.91631" lon="1.31477">
        <ele>352.9</ele>
      </trkpt>
      <trkpt lat="45.9155" lon="1.3153">
        <ele>351.8</ele>
      </trkpt>
      <trkpt lat="45.91429" lon="1.31568">
        <ele>351.8</ele>
        <extensions>
          <visugpx:TrkExtension xmlns:visugpx="https://www.visugpx.com/editgpx/">
            <visugpx:node>5</visugpx:node>
            </visugpx:TrkExtension>
        </extensions>
      </trkpt>
      <trkpt lat="45.91415" lon="1.31572">
        <ele>352</ele>
      </trkpt>
      <trkpt lat="45.91399" lon="1.3158">
        <ele>351.8</ele>
      </trkpt>
      <trkpt lat="45.9139" lon="1.31579">
        <ele>351.7</ele>
      </trkpt>
      <trkpt lat="45.91343" lon="1.31584">
        <ele>351.4</ele>
      </trkpt>
      <trkpt lat="45.91309" lon="1.31588">
        <ele>350.3</ele>
      </trkpt>
      <trkpt lat="45.91296" lon="1.3159">
        <ele>350.2</ele>
      </trkpt>
      <trkpt lat="45.91255" lon="1.31591">
        <ele>350</ele>
      </trkpt>
      <trkpt lat="45.91219" lon="1.31589">
        <ele>349.9</ele>
      </trkpt>
      <trkpt lat="45.91162" lon="1.3158">
        <ele>348.7</ele>
      </trkpt>
      <trkpt lat="45.91141" lon="1.31577">
        <ele>348.1</ele>
      </trkpt>
      <trkpt lat="45.91069" lon="1.31573">
        <ele>347.6</ele>
      </trkpt>
      <trkpt lat="45.91055" lon="1.31573">
        <ele>347.6</ele>
      </trkpt>
      <trkpt lat="45.91043" lon="1.31574">
        <ele>347.4</ele>
      </trkpt>
      <trkpt lat="45.9102" lon="1.31582">
        <ele>346.7</ele>
      </trkpt>
      <trkpt lat="45.90981" lon="1.31595">
        <ele>345.6</ele>
      </trkpt>
      <trkpt lat="45.90902" lon="1.31621">
        <ele>343.3</ele>
      </trkpt>
      <trkpt lat="45.90882" lon="1.3163">
        <ele>342.8</ele>
      </trkpt>
      <trkpt lat="45.90841" lon="1.31652">
        <ele>342</ele>
      </trkpt>
      <trkpt lat="45.90836" lon="1.31655">
        <ele>342</ele>
      </trkpt>
      <trkpt lat="45.90721" lon="1.31717">
        <ele>340</ele>
        <extensions>
          <visugpx:TrkExtension xmlns:visugpx="https://www.visugpx.com/editgpx/">
            <visugpx:node>6</visugpx:node>
            </visugpx:TrkExtension>
        </extensions>
      </trkpt>
      <trkpt lat="45.90666" lon="1.31736">
        <ele>339.5</ele>
      </trkpt>
      <trkpt lat="45.90645" lon="1.31743">
        <ele>339</ele>
      </trkpt>
      <trkpt lat="45.90627" lon="1.31749">
        <ele>338.6</ele>
      </trkpt>
      <trkpt lat="45.90614" lon="1.31753">
        <ele>338.2</ele>
      </trkpt>
      <trkpt lat="45.90598" lon="1.3176">
        <ele>337.9</ele>
      </trkpt>
      <trkpt lat="45.90583" lon="1.31769">
        <ele>337.7</ele>
      </trkpt>
      <trkpt lat="45.90581" lon="1.31771">
        <ele>337.7</ele>
      </trkpt>
      <trkpt lat="45.90497" lon="1.31754">
        <ele>335.3</ele>
      </trkpt>
      <trkpt lat="45.90497" lon="1.31756">
        <ele>335.4</ele>
      </trkpt>
      <trkpt lat="45.90497" lon="1.3176">
        <ele>335.7</ele>
      </trkpt>
      <trkpt lat="45.90483" lon="1.3176">
        <ele>335.5</ele>
      </trkpt>
      <trkpt lat="45.90462" lon="1.31762">
        <ele>335.1</ele>
      </trkpt>
      <trkpt lat="45.90422" lon="1.31765">
        <ele>334.2</ele>
      </trkpt>
      <trkpt lat="45.90415" lon="1.31765">
        <ele>334</ele>
      </trkpt>
      <trkpt lat="45.90405" lon="1.31765">
        <ele>333.9</ele>
      </trkpt>
      <trkpt lat="45.90392" lon="1.31765">
        <ele>333.6</ele>
      </trkpt>
      <trkpt lat="45.90265" lon="1.31705">
        <ele>331.7</ele>
      </trkpt>
      <trkpt lat="45.90173" lon="1.31672">
        <ele>330</ele>
      </trkpt>
      <trkpt lat="45.90148" lon="1.31667">
        <ele>330</ele>
      </trkpt>
      <trkpt lat="45.90144" lon="1.31667">
        <ele>330</ele>
      </trkpt>
      <trkpt lat="45.90139" lon="1.31654">
        <ele>329.5</ele>
      </trkpt>
      <trkpt lat="45.90143" lon="1.31653">
        <ele>329.6</ele>
        <extensions>
          <visugpx:TrkExtension xmlns:visugpx="https://www.visugpx.com/editgpx/">
            <visugpx:node>7</visugpx:node>
            </visugpx:TrkExtension>
        </extensions>
      </trkpt>
      <trkpt lat="45.90139" lon="1.31654">
        <ele>329.5</ele>
      </trkpt>
      <trkpt lat="45.90132" lon="1.31653">
        <ele>329.3</ele>
      </trkpt>
      <trkpt lat="45.90066" lon="1.31618">
        <ele>328.3</ele>
      </trkpt>
      <trkpt lat="45.90062" lon="1.31616">
        <ele>328.5</ele>
      </trkpt>
      <trkpt lat="45.90052" lon="1.31611">
        <ele>328.9</ele>
      </trkpt>
      <trkpt lat="45.90038" lon="1.31606">
        <ele>328.5</ele>
      </trkpt>
      <trkpt lat="45.90023" lon="1.3161">
        <ele>328.2</ele>
      </trkpt>
      <trkpt lat="45.89975" lon="1.31656">
        <ele>328.3</ele>
      </trkpt>
      <trkpt lat="45.89963" lon="1.31667">
        <ele>328.7</ele>
      </trkpt>
      <trkpt lat="45.89961" lon="1.31663">
        <ele>328.8</ele>
      </trkpt>
      <trkpt lat="45.89952" lon="1.31642">
        <ele>329.1</ele>
      </trkpt>
      <trkpt lat="45.89929" lon="1.31601">
        <ele>330.4</ele>
        <extensions>
          <visugpx:TrkExtension xmlns:visugpx="https://www.visugpx.com/editgpx/">
            <visugpx:node>8</visugpx:node>
            </visugpx:TrkExtension>
        </extensions>
      </trkpt>
      <trkpt lat="45.89925" lon="1.31594">
        <ele>330.3</ele>
      </trkpt>
      <trkpt lat="45.89914" lon="1.31578">
        <ele>330.3</ele>
      </trkpt>
      <trkpt lat="45.899" lon="1.3156">
        <ele>330.9</ele>
      </trkpt>
      <trkpt lat="45.89882" lon="1.3154">
        <ele>330.4</ele>
      </trkpt>
      <trkpt lat="45.89879" lon="1.31538">
        <ele>330.4</ele>
      </trkpt>
      <trkpt lat="45.8986" lon="1.31522">
        <ele>330</ele>
      </trkpt>
      <trkpt lat="45.89848" lon="1.3151">
        <ele>330.2</ele>
      </trkpt>
      <trkpt lat="45.89843" lon="1.31506">
        <ele>330.1</ele>
      </trkpt>
      <trkpt lat="45.89831" lon="1.31498">
        <ele>329.9</ele>
      </trkpt>
      <trkpt lat="45.89829" lon="1.31497">
        <ele>329.9</ele>
        <extensions>
          <visugpx:TrkExtension xmlns:visugpx="https://www.visugpx.com/editgpx/">
            <visugpx:node>9</visugpx:node>
            </visugpx:TrkExtension>
        </extensions>
      </trkpt>
      <trkpt lat="45.89824" lon="1.31493">
        <ele>329.7</ele>
      </trkpt>
      <trkpt lat="45.89806" lon="1.31483">
        <ele>329.4</ele>
      </trkpt>
      <trkpt lat="45.89794" lon="1.31476">
        <ele>329.1</ele>
      </trkpt>
      <trkpt lat="45.89781" lon="1.3147">
        <ele>328.9</ele>
      </trkpt>
      <trkpt lat="45.89782" lon="1.31468">
        <ele>328.8</ele>
      </trkpt>
      <trkpt lat="45.89781" lon="1.31463">
        <ele>328.7</ele>
      </trkpt>
      <trkpt lat="45.8978" lon="1.31461">
        <ele>328.6</ele>
      </trkpt>
      <trkpt lat="45.89778" lon="1.3146">
        <ele>328.6</ele>
      </trkpt>
      <trkpt lat="45.89775" lon="1.3146">
        <ele>328.6</ele>
      </trkpt>
      <trkpt lat="45.89773" lon="1.31463">
        <ele>328.7</ele>
      </trkpt>
      <trkpt lat="45.89772" lon="1.31465">
        <ele>328.7</ele>
      </trkpt>
      <trkpt lat="45.89763" lon="1.31458">
        <ele>328.5</ele>
      </trkpt>
      <trkpt lat="45.89761" lon="1.31465">
        <ele>328.7</ele>
      </trkpt>
      <trkpt lat="45.89753" lon="1.31468">
        <ele>328.8</ele>
      </trkpt>
      <trkpt lat="45.89741" lon="1.31469">
        <ele>328.9</ele>
      </trkpt>
      <trkpt lat="45.89732" lon="1.31466">
        <ele>328.9</ele>
      </trkpt>
      <trkpt lat="45.89723" lon="1.31459">
        <ele>329</ele>
        <extensions>
          <visugpx:TrkExtension xmlns:visugpx="https://www.visugpx.com/editgpx/">
            <visugpx:node>10</visugpx:node>
            </visugpx:TrkExtension>
        </extensions>
      </trkpt>
      <trkpt lat="45.89711" lon="1.3145">
        <ele>329.1</ele>
      </trkpt>
      <trkpt lat="45.89691" lon="1.31432">
        <ele>328.6</ele>
      </trkpt>
      <trkpt lat="45.89686" lon="1.31427">
        <ele>328.6</ele>
      </trkpt>
      <trkpt lat="45.89664" lon="1.31405">
        <ele>328.6</ele>
      </trkpt>
      <trkpt lat="45.89653" lon="1.31375">
        <ele>327.5</ele>
      </trkpt>
      <trkpt lat="45.89638" lon="1.31351">
        <ele>327</ele>
      </trkpt>
      <trkpt lat="45.89612" lon="1.31325">
        <ele>327</ele>
      </trkpt>
      <trkpt lat="45.89523" lon="1.3127">
        <ele>326.7</ele>
      </trkpt>
      <trkpt lat="45.89521" lon="1.31268">
        <ele>326.6</ele>
        <extensions>
          <visugpx:TrkExtension xmlns:visugpx="https://www.visugpx.com/editgpx/">
            <visugpx:node>11</visugpx:node>
            </visugpx:TrkExtension>
        </extensions>
      </trkpt>
      <trkpt lat="45.895" lon="1.31253">
        <ele>327.1</ele>
      </trkpt>
      <trkpt lat="45.89476" lon="1.31234">
        <ele>326.3</ele>
      </trkpt>
      <trkpt lat="45.89453" lon="1.31216">
        <ele>327</ele>
      </trkpt>
      <trkpt lat="45.89424" lon="1.3119">
        <ele>326.7</ele>
      </trkpt>
      <trkpt lat="45.89408" lon="1.31177">
        <ele>327.1</ele>
      </trkpt>
      <trkpt lat="45.89328" lon="1.31115">
        <ele>327.2</ele>
      </trkpt>
      <trkpt lat="45.89319" lon="1.31106">
        <ele>327.3</ele>
      </trkpt>
      <trkpt lat="45.89313" lon="1.31101">
        <ele>327.2</ele>
      </trkpt>
      <trkpt lat="45.89274" lon="1.31079">
        <ele>325.8</ele>
      </trkpt>
      <trkpt lat="45.89246" lon="1.31058">
        <ele>325.3</ele>
        <extensions>
          <visugpx:TrkExtension xmlns:visugpx="https://www.visugpx.com/editgpx/">
            <visugpx:node>12</visugpx:node>
            </visugpx:TrkExtension>
        </extensions>
      </trkpt>
      <trkpt lat="45.89206" lon="1.31026">
        <ele>323.9</ele>
      </trkpt>
      <trkpt lat="45.89167" lon="1.31004">
        <ele>319.6</ele>
      </trkpt>
      <trkpt lat="45.89154" lon="1.30998">
        <ele>317.9</ele>
      </trkpt>
      <trkpt lat="45.89152" lon="1.30982">
        <ele>316.6</ele>
      </trkpt>
      <trkpt lat="45.89149" lon="1.30972">
        <ele>315.7</ele>
        <extensions>
          <visugpx:TrkExtension xmlns:visugpx="https://www.visugpx.com/editgpx/">
            <visugpx:node>13</visugpx:node>
            </visugpx:TrkExtension>
        </extensions>
      </trkpt>
      <trkpt lat="45.89148" lon="1.3097">
        <ele>315.5</ele>
      </trkpt>
      <trkpt lat="45.89141" lon="1.30955">
        <ele>314.5</ele>
      </trkpt>
      <trkpt lat="45.89138" lon="1.30943">
        <ele>313.8</ele>
      </trkpt>
      <trkpt lat="45.89134" lon="1.30924">
        <ele>312.4</ele>
      </trkpt>
      <trkpt lat="45.89128" lon="1.30901">
        <ele>310.7</ele>
      </trkpt>
      <trkpt lat="45.89107" lon="1.3087">
        <ele>306.3</ele>
      </trkpt>
      <trkpt lat="45.89106" lon="1.30864">
        <ele>305.6</ele>
        <extensions>
          <visugpx:TrkExtension xmlns:visugpx="https://www.visugpx.com/editgpx/">
            <visugpx:node>14</visugpx:node>
            </visugpx:TrkExtension>
        </extensions>
      </trkpt>
      <trkpt lat="45.89095" lon="1.30796">
        <ele>297.3</ele>
      </trkpt>
      <trkpt lat="45.89093" lon="1.30772">
        <ele>294.6</ele>
      </trkpt>
      <trkpt lat="45.89095" lon="1.30764">
        <ele>292.7</ele>
      </trkpt>
      <trkpt lat="45.89099" lon="1.30762">
        <ele>291.1</ele>
      </trkpt>
      <trkpt lat="45.89098" lon="1.30745">
        <ele>288.4</ele>
      </trkpt>
      <trkpt lat="45.89082" lon="1.30726">
        <ele>289.7</ele>
      </trkpt>
      <trkpt lat="45.89073" lon="1.30722">
        <ele>288.9</ele>
      </trkpt>
      <trkpt lat="45.89055" lon="1.30713">
        <ele>286.3</ele>
      </trkpt>
      <trkpt lat="45.89036" lon="1.30702">
        <ele>281.9</ele>
      </trkpt>
      <trkpt lat="45.89034" lon="1.307">
        <ele>281.4</ele>
        <extensions>
          <visugpx:TrkExtension xmlns:visugpx="https://www.visugpx.com/editgpx/">
            <visugpx:node>15</visugpx:node>
            </visugpx:TrkExtension>
        </extensions>
      </trkpt>
      <trkpt lat="45.89019" lon="1.30688">
        <ele>279.1</ele>
      </trkpt>
      <trkpt lat="45.89016" lon="1.30683">
        <ele>278.7</ele>
      </trkpt>
      <trkpt lat="45.89014" lon="1.30678">
        <ele>278.4</ele>
      </trkpt>
      <trkpt lat="45.89014" lon="1.30675">
        <ele>278.3</ele>
      </trkpt>
      <trkpt lat="45.89013" lon="1.30669">
        <ele>278.1</ele>
      </trkpt>
      <trkpt lat="45.89012" lon="1.30656">
        <ele>278.4</ele>
      </trkpt>
      <trkpt lat="45.89012" lon="1.30638">
        <ele>279.1</ele>
      </trkpt>
      <trkpt lat="45.8901" lon="1.30602">
        <ele>283.7</ele>
      </trkpt>
      <trkpt lat="45.89034" lon="1.30607">
        <ele>281.4</ele>
      </trkpt>
      <trkpt lat="45.89058" lon="1.30611">
        <ele>281.3</ele>
      </trkpt>
      <trkpt lat="45.89081" lon="1.3062">
        <ele>282.2</ele>
      </trkpt>
      <trkpt lat="45.89104" lon="1.30634">
        <ele>282.5</ele>
      </trkpt>
      <trkpt lat="45.8912" lon="1.30635">
        <ele>283.5</ele>
        <extensions>
          <visugpx:TrkExtension xmlns:visugpx="https://www.visugpx.com/editgpx/">
            <visugpx:node>16</visugpx:node>
            </visugpx:TrkExtension>
        </extensions>
      </trkpt>
      <trkpt lat="45.89189" lon="1.30641">
        <ele>284.5</ele>
      </trkpt>
      <trkpt lat="45.89263" lon="1.30654">
        <ele>285</ele>
      </trkpt>
      <trkpt lat="45.89391" lon="1.30616">
        <ele>286.5</ele>
      </trkpt>
      <trkpt lat="45.89397" lon="1.30613">
        <ele>286.3</ele>
      </trkpt>
      <trkpt lat="45.89434" lon="1.30594">
        <ele>287.9</ele>
      </trkpt>
      <trkpt lat="45.89488" lon="1.30576">
        <ele>289.9</ele>
      </trkpt>
      <trkpt lat="45.89546" lon="1.30569">
        <ele>292.3</ele>
      </trkpt>
      <trkpt lat="45.8955" lon="1.30567">
        <ele>292.8</ele>
        <extensions>
          <visugpx:TrkExtension xmlns:visugpx="https://www.visugpx.com/editgpx/">
            <visugpx:node>17</visugpx:node>
            </visugpx:TrkExtension>
        </extensions>
      </trkpt>
      <trkpt lat="45.89576" lon="1.30555">
        <ele>293.2</ele>
      </trkpt>
      <trkpt lat="45.89604" lon="1.30549">
        <ele>292</ele>
      </trkpt>
      <trkpt lat="45.89606" lon="1.3053">
        <ele>293.9</ele>
      </trkpt>
      <trkpt lat="45.89601" lon="1.30505">
        <ele>295.6</ele>
      </trkpt>
      <trkpt lat="45.89594" lon="1.30494">
        <ele>295.7</ele>
      </trkpt>
      <trkpt lat="45.89555" lon="1.30468">
        <ele>299.4</ele>
        <extensions>
          <visugpx:TrkExtension xmlns:visugpx="https://www.visugpx.com/editgpx/">
            <visugpx:node>18</visugpx:node>
            </visugpx:TrkExtension>
        </extensions>
      </trkpt>
      <trkpt lat="45.89537" lon="1.30456">
        <ele>303.3</ele>
      </trkpt>
      <trkpt lat="45.89524" lon="1.30441">
        <ele>304.7</ele>
      </trkpt>
      <trkpt lat="45.89511" lon="1.30412">
        <ele>307.4</ele>
      </trkpt>
      <trkpt lat="45.89472" lon="1.30228">
        <ele>317.6</ele>
      </trkpt>
      <trkpt lat="45.89462" lon="1.302">
        <ele>318.7</ele>
      </trkpt>
      <trkpt lat="45.89453" lon="1.30123">
        <ele>320</ele>
        <extensions>
          <visugpx:TrkExtension xmlns:visugpx="https://www.visugpx.com/editgpx/">
            <visugpx:node>19</visugpx:node>
            </visugpx:TrkExtension>
        </extensions>
      </trkpt>
      <trkpt lat="45.8945" lon="1.30096">
        <ele>320.5</ele>
      </trkpt>
      <trkpt lat="45.89445" lon="1.30088">
        <ele>320.8</ele>
      </trkpt>
      <trkpt lat="45.89446" lon="1.30068">
        <ele>321.5</ele>
        <extensions>
          <visugpx:TrkExtension xmlns:visugpx="https://www.visugpx.com/editgpx/">
            <visugpx:node>20</visugpx:node>
            </visugpx:TrkExtension>
        </extensions>
      </trkpt>
      <trkpt lat="45.89446" lon="1.30061">
        <ele>321.8</ele>
      </trkpt>
      <trkpt lat="45.89446" lon="1.30052">
        <ele>322</ele>
      </trkpt>
      <trkpt lat="45.89447" lon="1.30047">
        <ele>321.9</ele>
      </trkpt>
      <trkpt lat="45.89438" lon="1.30043">
        <ele>322</ele>
      </trkpt>
      <trkpt lat="45.89439" lon="1.30038">
        <ele>322</ele>
      </trkpt>
      <trkpt lat="45.8944" lon="1.3003">
        <ele>322</ele>
      </trkpt>
      <trkpt lat="45.89442" lon="1.30023">
        <ele>322.2</ele>
      </trkpt>
      <trkpt lat="45.89441" lon="1.2995">
        <ele>324.1</ele>
        <extensions>
          <visugpx:TrkExtension xmlns:visugpx="https://www.visugpx.com/editgpx/">
            <visugpx:node>21</visugpx:node>
            </visugpx:TrkExtension>
        </extensions>
      </trkpt>
      <trkpt lat="45.8944" lon="1.29893">
        <ele>326</ele>
      </trkpt>
      <trkpt lat="45.89442" lon="1.29768">
        <ele>329.5</ele>
      </trkpt>
      <trkpt lat="45.89428" lon="1.29564">
        <ele>330.7</ele>
      </trkpt>
      <trkpt lat="45.89446" lon="1.29562">
        <ele>330.7</ele>
        <extensions>
          <visugpx:TrkExtension xmlns:visugpx="https://www.visugpx.com/editgpx/">
            <visugpx:node>22</visugpx:node>
            </visugpx:TrkExtension>
        </extensions>
      </trkpt>
      <trkpt lat="45.89448" lon="1.29562">
        <ele>330.7</ele>
      </trkpt>
      <trkpt lat="45.89463" lon="1.29554">
        <ele>330.4</ele>
      </trkpt>
      <trkpt lat="45.89465" lon="1.29552">
        <ele>330.4</ele>
      </trkpt>
      <trkpt lat="45.89445" lon="1.29493">
        <ele>332</ele>
      </trkpt>
      <trkpt lat="45.89454" lon="1.29494">
        <ele>332</ele>
      </trkpt>
      <trkpt lat="45.89536" lon="1.29508">
        <ele>329.9</ele>
      </trkpt>
      <trkpt lat="45.8955" lon="1.29508">
        <ele>329.6</ele>
      </trkpt>
      <trkpt lat="45.89607" lon="1.29524">
        <ele>328.3</ele>
        <extensions>
          <visugpx:TrkExtension xmlns:visugpx="https://www.visugpx.com/editgpx/">
            <visugpx:node>23</visugpx:node>
            </visugpx:TrkExtension>
        </extensions>
      </trkpt>
      <trkpt lat="45.89631" lon="1.29531">
        <ele>327.9</ele>
      </trkpt>
      <trkpt lat="45.89745" lon="1.29578">
        <ele>327.2</ele>
      </trkpt>
      <trkpt lat="45.89778" lon="1.29595">
        <ele>327</ele>
      </trkpt>
      <trkpt lat="45.89848" lon="1.29638">
        <ele>326</ele>
      </trkpt>
      <trkpt lat="45.90048" lon="1.29724">
        <ele>327</ele>
      </trkpt>
      <trkpt lat="45.90053" lon="1.29731">
        <ele>327</ele>
      </trkpt>
      <trkpt lat="45.90061" lon="1.29743">
        <ele>327</ele>
      </trkpt>
      <trkpt lat="45.9014" lon="1.29796">
        <ele>328</ele>
      </trkpt>
      <trkpt lat="45.90394" lon="1.29963">
        <ele>337.6</ele>
      </trkpt>
      <trkpt lat="45.90495" lon="1.30035">
        <ele>338.7</ele>
      </trkpt>
      <trkpt lat="45.90526" lon="1.30057">
        <ele>338.9</ele>
      </trkpt>
      <trkpt lat="45.90536" lon="1.3006">
        <ele>338.8</ele>
      </trkpt>
      <trkpt lat="45.90655" lon="1.30044">
        <ele>339.4</ele>
      </trkpt>
      <trkpt lat="45.90695" lon="1.30032">
        <ele>339.8</ele>
        <extensions>
          <visugpx:TrkExtension xmlns:visugpx="https://www.visugpx.com/editgpx/">
            <visugpx:node>24</visugpx:node>
            </visugpx:TrkExtension>
        </extensions>
      </trkpt>
      <trkpt lat="45.90722" lon="1.30023">
        <ele>340.2</ele>
      </trkpt>
      <trkpt lat="45.90769" lon="1.30005">
        <ele>339</ele>
      </trkpt>
      <trkpt lat="45.90809" lon="1.29984">
        <ele>340.1</ele>
      </trkpt>
      <trkpt lat="45.90817" lon="1.3">
        <ele>340</ele>
      </trkpt>
      <trkpt lat="45.90821" lon="1.30008">
        <ele>339.6</ele>
      </trkpt>
      <trkpt lat="45.90864" lon="1.301">
        <ele>336</ele>
        <extensions>
          <visugpx:TrkExtension xmlns:visugpx="https://www.visugpx.com/editgpx/">
            <visugpx:node>25</visugpx:node>
            </visugpx:TrkExtension>
        </extensions>
      </trkpt>
      <trkpt lat="45.90892" lon="1.30158">
        <ele>334.8</ele>
      </trkpt>
      <trkpt lat="45.90922" lon="1.30227">
        <ele>333</ele>
      </trkpt>
      <trkpt lat="45.90931" lon="1.30242">
        <ele>332.4</ele>
      </trkpt>
      <trkpt lat="45.90937" lon="1.30248">
        <ele>332.1</ele>
      </trkpt>
      <trkpt lat="45.90966" lon="1.30256">
        <ele>331.2</ele>
      </trkpt>
      <trkpt lat="45.90984" lon="1.30261">
        <ele>331</ele>
      </trkpt>
      <trkpt lat="45.90985" lon="1.30256">
        <ele>331</ele>
      </trkpt>
      <trkpt lat="45.9099" lon="1.30247">
        <ele>331.1</ele>
      </trkpt>
      <trkpt lat="45.91001" lon="1.30239">
        <ele>331.5</ele>
      </trkpt>
      <trkpt lat="45.91014" lon="1.30213">
        <ele>332.7</ele>
      </trkpt>
      <trkpt lat="45.91024" lon="1.30196">
        <ele>333</ele>
        <extensions>
          <visugpx:TrkExtension xmlns:visugpx="https://www.visugpx.com/editgpx/">
            <visugpx:node>26</visugpx:node>
            </visugpx:TrkExtension>
        </extensions>
      </trkpt>
      <trkpt lat="45.91047" lon="1.3016">
        <ele>334.2</ele>
      </trkpt>
      <trkpt lat="45.91053" lon="1.30154">
        <ele>334.5</ele>
      </trkpt>
      <trkpt lat="45.911" lon="1.30119">
        <ele>336.5</ele>
      </trkpt>
      <trkpt lat="45.91115" lon="1.30111">
        <ele>337.3</ele>
      </trkpt>
      <trkpt lat="45.91118" lon="1.3011">
        <ele>337.5</ele>
      </trkpt>
      <trkpt lat="45.9113" lon="1.30105">
        <ele>338.3</ele>
      </trkpt>
      <trkpt lat="45.91143" lon="1.30102">
        <ele>338.9</ele>
      </trkpt>
      <trkpt lat="45.91159" lon="1.30101">
        <ele>339.6</ele>
      </trkpt>
      <trkpt lat="45.91184" lon="1.30108">
        <ele>340.6</ele>
      </trkpt>
      <trkpt lat="45.91197" lon="1.30115">
        <ele>341.4</ele>
      </trkpt>
      <trkpt lat="45.91205" lon="1.30121">
        <ele>342.1</ele>
      </trkpt>
      <trkpt lat="45.91211" lon="1.30126">
        <ele>342.3</ele>
      </trkpt>
      <trkpt lat="45.91228" lon="1.30141">
        <ele>342.5</ele>
      </trkpt>
      <trkpt lat="45.91238" lon="1.30151">
        <ele>343.5</ele>
      </trkpt>
      <trkpt lat="45.91252" lon="1.30167">
        <ele>344.2</ele>
      </trkpt>
      <trkpt lat="45.91271" lon="1.30185">
        <ele>345.7</ele>
      </trkpt>
      <trkpt lat="45.91275" lon="1.3019">
        <ele>345.9</ele>
      </trkpt>
      <trkpt lat="45.91272" lon="1.30196">
        <ele>345.8</ele>
      </trkpt>
      <trkpt lat="45.9127" lon="1.30209">
        <ele>345.7</ele>
      </trkpt>
      <trkpt lat="45.91271" lon="1.30214">
        <ele>345.8</ele>
      </trkpt>
      <trkpt lat="45.91272" lon="1.30216">
        <ele>345.8</ele>
      </trkpt>
      <trkpt lat="45.91274" lon="1.30218">
        <ele>345.9</ele>
      </trkpt>
      <trkpt lat="45.91276" lon="1.30219">
        <ele>345.9</ele>
      </trkpt>
      <trkpt lat="45.9128" lon="1.30217">
        <ele>346</ele>
      </trkpt>
      <trkpt lat="45.91282" lon="1.30214">
        <ele>346</ele>
      </trkpt>
      <trkpt lat="45.91285" lon="1.30219">
        <ele>346</ele>
      </trkpt>
      <trkpt lat="45.91292" lon="1.30235">
        <ele>346</ele>
      </trkpt>
      <trkpt lat="45.91301" lon="1.30253">
        <ele>346</ele>
      </trkpt>
      <trkpt lat="45.91308" lon="1.30264">
        <ele>346</ele>
      </trkpt>
      <trkpt lat="45.91316" lon="1.30272">
        <ele>346</ele>
      </trkpt>
      <trkpt lat="45.91327" lon="1.30278">
        <ele>346</ele>
      </trkpt>
      <trkpt lat="45.91346" lon="1.30283">
        <ele>346.6</ele>
        <extensions>
          <visugpx:TrkExtension xmlns:visugpx="https://www.visugpx.com/editgpx/">
            <visugpx:node>27</visugpx:node>
            </visugpx:TrkExtension>
        </extensions>
      </trkpt>
      <trkpt lat="45.91364" lon="1.30286">
        <ele>347</ele>
      </trkpt>
      <trkpt lat="45.91366" lon="1.30299">
        <ele>347</ele>
      </trkpt>
      <trkpt lat="45.91373" lon="1.30314">
        <ele>347.3</ele>
      </trkpt>
      <trkpt lat="45.91384" lon="1.30366">
        <ele>347.8</ele>
      </trkpt>
      <trkpt lat="45.91383" lon="1.304">
        <ele>345.9</ele>
      </trkpt>
      <trkpt lat="45.91383" lon="1.30404">
        <ele>345.6</ele>
        <extensions>
          <visugpx:TrkExtension xmlns:visugpx="https://www.visugpx.com/editgpx/">
            <visugpx:node>28</visugpx:node>
            </visugpx:TrkExtension>
        </extensions>
      </trkpt>
      <trkpt lat="45.91381" lon="1.30427">
        <ele>344.1</ele>
      </trkpt>
      <trkpt lat="45.91382" lon="1.3044">
        <ele>343.7</ele>
      </trkpt>
      <trkpt lat="45.9138" lon="1.30445">
        <ele>343.3</ele>
      </trkpt>
      <trkpt lat="45.91364" lon="1.30448">
        <ele>342.1</ele>
      </trkpt>
      <trkpt lat="45.91359" lon="1.30464">
        <ele>341</ele>
      </trkpt>
      <trkpt lat="45.9136" lon="1.30485">
        <ele>340.9</ele>
      </trkpt>
      <trkpt lat="45.91352" lon="1.30496">
        <ele>340</ele>
      </trkpt>
      <trkpt lat="45.9134" lon="1.30506">
        <ele>338.7</ele>
      </trkpt>
      <trkpt lat="45.91334" lon="1.30525">
        <ele>338.1</ele>
      </trkpt>
      <trkpt lat="45.91331" lon="1.30543">
        <ele>338.7</ele>
      </trkpt>
      <trkpt lat="45.91331" lon="1.30558">
        <ele>339.7</ele>
      </trkpt>
      <trkpt lat="45.91324" lon="1.30575">
        <ele>338.9</ele>
      </trkpt>
      <trkpt lat="45.91325" lon="1.30593">
        <ele>339.3</ele>
      </trkpt>
      <trkpt lat="45.91334" lon="1.30627">
        <ele>339.3</ele>
      </trkpt>
      <trkpt lat="45.91354" lon="1.30644">
        <ele>339.4</ele>
      </trkpt>
      <trkpt lat="45.91396" lon="1.30653">
        <ele>339.2</ele>
      </trkpt>
      <trkpt lat="45.91407" lon="1.3065">
        <ele>339.5</ele>
        <extensions>
          <visugpx:TrkExtension xmlns:visugpx="https://www.visugpx.com/editgpx/">
            <visugpx:node>29</visugpx:node>
            </visugpx:TrkExtension>
        </extensions>
      </trkpt>
      <trkpt lat="45.91422" lon="1.30646">
        <ele>339.8</ele>
        <extensions>
          <visugpx:TrkExtension xmlns:visugpx="https://www.visugpx.com/editgpx/">
            <visugpx:node>30</visugpx:node>
            </visugpx:TrkExtension>
        </extensions>
      </trkpt>
      <trkpt lat="45.91465" lon="1.30634">
        <ele>337.7</ele>
      </trkpt>
      <trkpt lat="45.91486" lon="1.30627">
        <ele>337.2</ele>
      </trkpt>
      <trkpt lat="45.91547" lon="1.30593">
        <ele>341.3</ele>
      </trkpt>
      <trkpt lat="45.91561" lon="1.3059">
        <ele>341.6</ele>
        <extensions>
          <visugpx:TrkExtension xmlns:visugpx="https://www.visugpx.com/editgpx/">
            <visugpx:node>31</visugpx:node>
            </visugpx:TrkExtension>
        </extensions>
      </trkpt>
      <trkpt lat="45.9159" lon="1.30585">
        <ele>341.5</ele>
      </trkpt>
      <trkpt lat="45.91626" lon="1.3057">
        <ele>341</ele>
      </trkpt>
      <trkpt lat="45.91651" lon="1.30567">
        <ele>339</ele>
      </trkpt>
      <trkpt lat="45.91692" lon="1.30569">
        <ele>336.7</ele>
      </trkpt>
      <trkpt lat="45.91714" lon="1.30558">
        <ele>336.5</ele>
      </trkpt>
      <trkpt lat="45.91729" lon="1.30546">
        <ele>335.9</ele>
      </trkpt>
      <trkpt lat="45.91742" lon="1.30517">
        <ele>336</ele>
      </trkpt>
      <trkpt lat="45.91774" lon="1.30513">
        <ele>335.5</ele>
      </trkpt>
      <trkpt lat="45.91828" lon="1.30489">
        <ele>344.5</ele>
      </trkpt>
      <trkpt lat="45.91868" lon="1.30491">
        <ele>345.7</ele>
      </trkpt>
      <trkpt lat="45.91889" lon="1.3048">
        <ele>347.1</ele>
      </trkpt>
      <trkpt lat="45.91924" lon="1.30431">
        <ele>347.4</ele>
      </trkpt>
      <trkpt lat="45.91973" lon="1.30413">
        <ele>346</ele>
      </trkpt>
      <trkpt lat="45.92011" lon="1.30371">
        <ele>348.1</ele>
      </trkpt>
      <trkpt lat="45.92051" lon="1.3031">
        <ele>347.5</ele>
      </trkpt>
      <trkpt lat="45.92069" lon="1.30272">
        <ele>348.9</ele>
      </trkpt>
      <trkpt lat="45.92087" lon="1.30236">
        <ele>346.6</ele>
      </trkpt>
      <trkpt lat="45.92115" lon="1.30212">
        <ele>346.7</ele>
      </trkpt>
      <trkpt lat="45.92143" lon="1.30199">
        <ele>346.8</ele>
      </trkpt>
      <trkpt lat="45.9215" lon="1.3018">
        <ele>347</ele>
        <extensions>
          <visugpx:TrkExtension xmlns:visugpx="https://www.visugpx.com/editgpx/">
            <visugpx:node>32</visugpx:node>
            </visugpx:TrkExtension>
        </extensions>
      </trkpt>
      <trkpt lat="45.92155" lon="1.30165">
        <ele>347.2</ele>
      </trkpt>
      <trkpt lat="45.92164" lon="1.30133">
        <ele>347.5</ele>
      </trkpt>
      <trkpt lat="45.92168" lon="1.30122">
        <ele>347.6</ele>
      </trkpt>
      <trkpt lat="45.9227" lon="1.30172">
        <ele>345.7</ele>
      </trkpt>
      <trkpt lat="45.92283" lon="1.30128">
        <ele>345.7</ele>
        <extensions>
          <visugpx:TrkExtension xmlns:visugpx="https://www.visugpx.com/editgpx/">
            <visugpx:node>33</visugpx:node>
            </visugpx:TrkExtension>
        </extensions>
      </trkpt>
      <trkpt lat="45.92296" lon="1.30085">
        <ele>350.1</ele>
      </trkpt>
      <trkpt lat="45.92298" lon="1.30079">
        <ele>350.4</ele>
      </trkpt>
      <trkpt lat="45.92303" lon="1.30066">
        <ele>350.4</ele>
      </trkpt>
      <trkpt lat="45.92307" lon="1.30056">
        <ele>349.9</ele>
      </trkpt>
      <trkpt lat="45.92313" lon="1.3004">
        <ele>348.1</ele>
      </trkpt>
      <trkpt lat="45.92311" lon="1.30026">
        <ele>347</ele>
      </trkpt>
      <trkpt lat="45.92306" lon="1.3002">
        <ele>346.9</ele>
      </trkpt>
      <trkpt lat="45.92299" lon="1.30016">
        <ele>347.7</ele>
      </trkpt>
      <trkpt lat="45.9225" lon="1.29996">
        <ele>351.3</ele>
      </trkpt>
      <trkpt lat="45.92214" lon="1.29961">
        <ele>354.3</ele>
      </trkpt>
      <trkpt lat="45.92153" lon="1.29876">
        <ele>355.2</ele>
      </trkpt>
      <trkpt lat="45.92153" lon="1.29864">
        <ele>355.5</ele>
      </trkpt>
      <trkpt lat="45.92155" lon="1.29854">
        <ele>355.4</ele>
        <extensions>
          <visugpx:TrkExtension xmlns:visugpx="https://www.visugpx.com/editgpx/">
            <visugpx:node>34</visugpx:node>
            </visugpx:TrkExtension>
        </extensions>
      </trkpt>
      <trkpt lat="45.92157" lon="1.29848">
        <ele>355.3</ele>
      </trkpt>
      <trkpt lat="45.92163" lon="1.29831">
        <ele>355.1</ele>
      </trkpt>
      <trkpt lat="45.92198" lon="1.29784">
        <ele>357.9</ele>
      </trkpt>
      <trkpt lat="45.92266" lon="1.29716">
        <ele>360.9</ele>
      </trkpt>
      <trkpt lat="45.9236" lon="1.29603">
        <ele>364.2</ele>
      </trkpt>
      <trkpt lat="45.92371" lon="1.29598">
        <ele>364.6</ele>
      </trkpt>
      <trkpt lat="45.92388" lon="1.29597">
        <ele>365</ele>
      </trkpt>
      <trkpt lat="45.92412" lon="1.296">
        <ele>365</ele>
      </trkpt>
      <trkpt lat="45.92419" lon="1.29563">
        <ele>366.4</ele>
      </trkpt>
      <trkpt lat="45.92422" lon="1.29534">
        <ele>367.6</ele>
        <extensions>
          <visugpx:TrkExtension xmlns:visugpx="https://www.visugpx.com/editgpx/">
            <visugpx:node>35</visugpx:node>
            </visugpx:TrkExtension>
        </extensions>
      </trkpt>
      <trkpt lat="45.92423" lon="1.2952">
        <ele>368.1</ele>
      </trkpt>
      <trkpt lat="45.92444" lon="1.2939">
        <ele>372.9</ele>
      </trkpt>
      <trkpt lat="45.92464" lon="1.29353">
        <ele>374.6</ele>
      </trkpt>
      <trkpt lat="45.92473" lon="1.29327">
        <ele>375.4</ele>
      </trkpt>
      <trkpt lat="45.92476" lon="1.29314">
        <ele>376.3</ele>
      </trkpt>
      <trkpt lat="45.92475" lon="1.29255">
        <ele>378</ele>
        <extensions>
          <visugpx:TrkExtension xmlns:visugpx="https://www.visugpx.com/editgpx/">
            <visugpx:node>36</visugpx:node>
            </visugpx:TrkExtension>
        </extensions>
      </trkpt>
      <trkpt lat="45.92474" lon="1.29226">
        <ele>378.9</ele>
      </trkpt>
      <trkpt lat="45.92471" lon="1.29209">
        <ele>379.5</ele>
      </trkpt>
      <trkpt lat="45.92462" lon="1.29182">
        <ele>381.5</ele>
      </trkpt>
      <trkpt lat="45.92623" lon="1.29148">
        <ele>380.8</ele>
      </trkpt>
      <trkpt lat="45.9267" lon="1.29136">
        <ele>381.1</ele>
      </trkpt>
      <trkpt lat="45.92709" lon="1.29122">
        <ele>380.9</ele>
        <extensions>
          <visugpx:TrkExtension xmlns:visugpx="https://www.visugpx.com/editgpx/">
            <visugpx:node>37</visugpx:node>
            </visugpx:TrkExtension>
        </extensions>
      </trkpt>
      <trkpt lat="45.92728" lon="1.29115">
        <ele>380.9</ele>
      </trkpt>
      <trkpt lat="45.9269" lon="1.28961">
        <ele>388.5</ele>
        <extensions>
          <visugpx:TrkExtension xmlns:visugpx="https://www.visugpx.com/editgpx/">
            <visugpx:node>38</visugpx:node>
            </visugpx:TrkExtension>
        </extensions>
      </trkpt>
      <trkpt lat="45.92682" lon="1.28927">
        <ele>389</ele>
      </trkpt>
      <trkpt lat="45.9267" lon="1.28861">
        <ele>389</ele>
      </trkpt>
      <trkpt lat="45.92677" lon="1.28761">
        <ele>389.6</ele>
        <extensions>
          <visugpx:TrkExtension xmlns:visugpx="https://www.visugpx.com/editgpx/">
            <visugpx:node>39</visugpx:node>
            </visugpx:TrkExtension>
        </extensions>
      </trkpt>
      <trkpt lat="45.92677" lon="1.28756">
        <ele>389.6</ele>
      </trkpt>
      <trkpt lat="45.9268" lon="1.28743">
        <ele>389.8</ele>
        <extensions>
          <visugpx:TrkExtension xmlns:visugpx="https://www.visugpx.com/editgpx/">
            <visugpx:node>40</visugpx:node>
            </visugpx:TrkExtension>
        </extensions>
      </trkpt>
    </trkseg>
  </trk>
</gpx>